Wetterdaten: Sonntag, 14.04.2019
Datum Zeit Temp. Aussen Temp. o. S. +5cm Feuchte Auss Luftdruck Regen Sonnenschein Regendauer Solar Windben Empfang
14.04.2019 00:00 2,7 C 1,7 C 1,1 C 88 % 1021,2 hPa 0,0 l/m 0 min 0 min 0 W/m 0,0 km/h (0 Bft) 100,00 %
14.04.2019 00:02 2,7 C 1,7 C 1,1 C 88 % 1021,2 hPa 0,0 l/m 0 min 0 min 0 W/m 3,2 km/h (1 Bft) 100,00 %
14.04.2019 00:04 2,7 C 1,7 C 1,1 C 88 % 1021,2 hPa 0,0 l/m 0 min 0 min 0 W/m 3,2 km/h (1 Bft) 97,87 %
14.04.2019 00:07 2,7 C 1,7 C 1,1 C 88 % 1021,1 hPa 0,0 l/m 0 min 0 min 0 W/m 3,2 km/h (1 Bft) 98,57 %
14.04.2019 00:08 2,6 C 1,7 C 1,1 C 88 % 1021,1 hPa 0,0 l/m 0 min 0 min 0 W/m 0,0 km/h (0 Bft) 95,65 %
14.04.2019 00:10 2,6 C 1,1 C 1,1 C 88 % 1021,2 hPa 0,0 l/m 0 min 0 min 0 W/m 3,2 km/h (1 Bft) 97,87 %
14.04.2019 00:12 2,6 C 1,1 C 1,1 C 88 % 1021,2 hPa 0,0 l/m 0 min 0 min 0 W/m 0,0 km/h (0 Bft) 97,87 %
14.04.2019 00:14 2,6 C 1,1 C 1,1 C 88 % 1021,3 hPa 0,0 l/m 0 min 0 min 0 W/m 0,0 km/h (0 Bft) 97,87 %
14.04.2019 00:16 2,5 C 1,1 C 1,1 C 88 % 1021,3 hPa 0,0 l/m 0 min 0 min 0 W/m 0,0 km/h (0 Bft) 95,74 %
14.04.2019 00:18 2,5 C 1,1 C 1,1 C 88 % 1021,3 hPa 0,0 l/m 0 min 0 min 0 W/m 0,0 km/h (0 Bft) 91,30 %
14.04.2019 00:20 2,4 C 1,1 C 1,1 C 88 % 1021,3 hPa 0,0 l/m 0 min 0 min 0 W/m 0,0 km/h (0 Bft) 95,74 %
14.04.2019 00:22 2,4 C 1,1 C 1,1 C 88 % 1021,3 hPa 0,0 l/m 0 min 0 min 0 W/m 0,0 km/h (0 Bft) 95,74 %
14.04.2019 00:24 2,4 C 1,1 C 1,1 C 88 % 1021,2 hPa 0,0 l/m 0 min 0 min 0 W/m 9,7 km/h (2 Bft) 89,36 %
14.04.2019 00:26 2,4 C 1,7 C 1,1 C 88 % 1021,2 hPa 0,0 l/m 0 min 0 min 0 W/m 3,2 km/h (1 Bft) 93,62 %
14.04.2019 00:28 2,4 C 1,7 C 1,1 C 88 % 1021,3 hPa 0,0 l/m 0 min 0 min 0 W/m 0,0 km/h (0 Bft) 95,74 %
14.04.2019 00:30 2,3 C 1,7 C 1,1 C 88 % 1021,3 hPa 0,0 l/m 0 min 0 min 0 W/m 0,0 km/h (0 Bft) 93,48 %
14.04.2019 00:32 2,3 C 1,7 C 1,7 C 88 % 1021,3 hPa 0,0 l/m 0 min 0 min 0 W/m 6,4 km/h (2 Bft) 95,74 %
14.04.2019 00:34 2,3 C 1,7 C 1,7 C 88 % 1021,4 hPa 0,0 l/m 0 min 0 min 0 W/m 6,4 km/h (2 Bft) 93,62 %
14.04.2019 00:36 2,3 C 1,7 C 1,7 C 88 % 1021,4 hPa 0,0 l/m 0 min 0 min 0 W/m 0,0 km/h (0 Bft) 97,87 %
14.04.2019 00:38 2,3 C 1,7 C 1,7 C 88 % 1021,4 hPa 0,0 l/m 0 min 0 min 0 W/m 0,0 km/h (0 Bft) 97,87 %
14.04.2019 00:40 2,3 C 1,7 C 1,7 C 88 % 1021,4 hPa 0,0 l/m 0 min 0 min 0 W/m 0,0 km/h (0 Bft) 97,83 %
14.04.2019 00:42 2,3 C 1,7 C 1,7 C 89 % 1021,4 hPa 0,0 l/m 0 min 0 min 0 W/m 0,0 km/h (0 Bft) 97,87 %
14.04.2019 00:44 2,3 C 1,7 C 1,7 C 89 % 1021,4 hPa 0,0 l/m 0 min 0 min 0 W/m 0,0 km/h (0 Bft) 97,87 %
14.04.2019 00:46 2,3 C 1,7 C 1,7 C 89 % 1021,4 hPa 0,0 l/m 0 min 0 min 0 W/m 3,2 km/h (1 Bft) 97,87 %
14.04.2019 00:48 2,3 C 1,7 C 1,7 C 89 % 1021,4 hPa 0,0 l/m 0 min 0 min 0 W/m 0,0 km/h (0 Bft) 97,87 %
14.04.2019 00:50 2,3 C 2,2 C 1,7 C 89 % 1021,5 hPa 0,0 l/m 0 min 0 min 0 W/m 0,0 km/h (0 Bft) 95,74 %
14.04.2019 00:52 2,3 C 2,2 C 1,7 C 89 % 1021,5 hPa 0,0 l/m 0 min 0 min 0 W/m 0,0 km/h (0 Bft) 93,48 %
14.04.2019 00:54 2,3 C 2,2 C 1,7 C 89 % 1021,5 hPa 0,0 l/m 0 min 0 min 0 W/m 0,0 km/h (0 Bft) 95,74 %
14.04.2019 00:56 2,4 C 2,2 C 1,7 C 89 % 1021,5 hPa 0,0 l/m 0 min 0 min 0 W/m 0,0 km/h (0 Bft) 95,74 %
14.04.2019 00:58 2,4 C 2,2 C 1,7 C 89 % 1021,5 hPa 0,0 l/m 0 min 0 min 0 W/m 0,0 km/h (0 Bft) 91,49 %
14.04.2019 01:00 2,4 C 2,2 C 1,7 C 89 % 1021,6 hPa 0,0 l/m 0 min 0 min 0 W/m 3,2 km/h (1 Bft) 95,74 %
14.04.2019 01:02 2,4 C 2,2 C 1,7 C 89 % 1021,5 hPa 0,0 l/m 0 min 0 min 0 W/m 9,7 km/h (2 Bft) 93,62 %
14.04.2019 01:04 2,4 C 2,2 C 2,2 C 89 % 1021,5 hPa 0,0 l/m 0 min 0 min 0 W/m 9,7 km/h (2 Bft) 95,65 %
14.04.2019 01:06 2,4 C 2,2 C 2,2 C 89 % 1021,4 hPa 0,0 l/m 0 min 0 min 0 W/m 6,4 km/h (2 Bft) 93,62 %
14.04.2019 01:08 2,5 C 2,2 C 2,2 C 89 % 1021,4 hPa 0,0 l/m 0 min 0 min 0 W/m 9,7 km/h (2 Bft) 93,62 %
14.04.2019 01:10 2,5 C 2,2 C 2,2 C 89 % 1021,4 hPa 0,0 l/m 0 min 0 min 0 W/m 3,2 km/h (1 Bft) 91,49 %
14.04.2019 01:12 2,6 C 2,2 C 2,2 C 90 % 1021,4 hPa 0,0 l/m 0 min 0 min 0 W/m 6,4 km/h (2 Bft) 93,62 %
14.04.2019 01:14 2,6 C 2,2 C 2,2 C 90 % 1021,4 hPa 0,0 l/m 0 min 0 min 0 W/m 9,7 km/h (2 Bft) 97,87 %
14.04.2019 01:16 2,6 C 2,2 C 2,2 C 90 % 1021,4 hPa 0,0 l/m 0 min 0 min 0 W/m 6,4 km/h (2 Bft) 97,83 %
14.04.2019 01:18 2,6 C 2,2 C 2,2 C 90 % 1021,3 hPa 0,0 l/m 0 min 0 min 0 W/m 6,4 km/h (2 Bft) 97,87 %
14.04.2019 01:20 2,6 C 2,2 C 1,7 C 90 % 1021,4 hPa 0,0 l/m 0 min 0 min 0 W/m 3,2 km/h (1 Bft) 95,74 %
14.04.2019 01:22 2,6 C 2,2 C 1,7 C 90 % 1021,3 hPa 0,0 l/m 0 min 0 min 0 W/m 3,2 km/h (1 Bft) 95,74 %
14.04.2019 01:24 2,6 C 2,2 C 1,7 C 90 % 1021,3 hPa 0,0 l/m 0 min 0 min 0 W/m 6,4 km/h (2 Bft) 97,87 %
14.04.2019 01:26 2,7 C 2,2 C 1,7 C 90 % 1021,3 hPa 0,0 l/m 0 min 0 min 0 W/m 3,2 km/h (1 Bft) 95,74 %
14.04.2019 01:28 2,7 C 2,2 C 1,7 C 90 % 1021,3 hPa 0,0 l/m 0 min 0 min 0 W/m 16,1 km/h (3 Bft) 95,65 %
14.04.2019 01:30 2,6 C 2,2 C 1,7 C 90 % 1021,3 hPa 0,0 l/m 0 min 0 min 0 W/m 6,4 km/h (2 Bft) 97,87 %
14.04.2019 01:32 2,6 C 2,2 C 1,7 C 90 % 1021,2 hPa 0,0 l/m 0 min 0 min 0 W/m 0,0 km/h (0 Bft) 97,87 %
14.04.2019 01:34 2,7 C 2,2 C 1,7 C 90 % 1021,2 hPa 0,0 l/m 0 min 0 min 0 W/m 3,2 km/h (1 Bft) 97,87 %
14.04.2019 01:36 2,7 C 2,2 C 1,7 C 90 % 1021,2 hPa 0,0 l/m 0 min 0 min 0 W/m 6,4 km/h (2 Bft) 97,87 %
14.04.2019 01:38 2,7 C 2,2 C 1,7 C 90 % 1021,2 hPa 0,0 l/m 0 min 0 min 0 W/m 9,7 km/h (2 Bft) 97,87 %
14.04.2019 01:40 2,7 C 2,2 C 1,7 C 90 % 1021,2 hPa 0,0 l/m 0 min 0 min 0 W/m 6,4 km/h (2 Bft) 95,65 %
14.04.2019 01:42 2,7 C 2,2 C 1,7 C 90 % 1021,2 hPa 0,0 l/m 0 min 0 min 0 W/m 3,2 km/h (1 Bft) 97,87 %
14.04.2019 01:44 2,6 C 2,2 C 1,7 C 90 % 1021,2 hPa 0,0 l/m 0 min 0 min 0 W/m 12,9 km/h (3 Bft) 95,74 %
14.04.2019 01:46 2,6 C 2,2 C 1,7 C 90 % 1021,2 hPa 0,0 l/m 0 min 0 min 0 W/m 12,9 km/h (3 Bft) 95,74 %
14.04.2019 01:48 2,6 C 2,2 C 1,7 C 90 % 1021,2 hPa 0,0 l/m 0 min 0 min 0 W/m 3,2 km/h (1 Bft) 93,62 %
14.04.2019 01:50 2,6 C 2,2 C 1,7 C 90 % 1021,2 hPa 0,0 l/m 0 min 0 min 0 W/m 3,2 km/h (1 Bft) 95,65 %
14.04.2019 01:52 2,6 C 2,2 C 1,7 C 90 % 1021,1 hPa 0,0 l/m 0 min 0 min 0 W/m 6,4 km/h (2 Bft) 93,62 %
14.04.2019 01:54 2,6 C 2,2 C 1,7 C 90 % 1021,1 hPa 0,0 l/m 0 min 0 min 0 W/m 3,2 km/h (1 Bft) 95,74 %
14.04.2019 01:56 2,6 C 2,2 C 1,7 C 90 % 1021,2 hPa 0,0 l/m 0 min 0 min 0 W/m 9,7 km/h (2 Bft) 95,74 %
14.04.2019 01:58 2,6 C 2,2 C 1,7 C 90 % 1021,2 hPa 0,0 l/m 0 min 0 min 0 W/m 3,2 km/h (1 Bft) 100,00 %
14.04.2019 02:00 2,6 C 2,2 C 1,7 C 90 % 1021,1 hPa 0,0 l/m 0 min 0 min 0 W/m 9,7 km/h (2 Bft) 97,87 %
14.04.2019 02:02 2,6 C 2,2 C 1,7 C 90 % 1021,1 hPa 0,0 l/m 0 min 0 min 0 W/m 0,0 km/h (0 Bft) 97,83 %
14.04.2019 02:04 2,6 C 2,2 C 1,7 C 90 % 1021,1 hPa 0,0 l/m 0 min 0 min 0 W/m 3,2 km/h (1 Bft) 100,00 %
14.04.2019 02:06 2,6 C 2,2 C 1,7 C 90 % 1021,0 hPa 0,0 l/m 0 min 0 min 0 W/m 6,4 km/h (2 Bft) 93,62 %
14.04.2019 02:08 2,6 C 2,2 C 1,7 C 90 % 1021,0 hPa 0,0 l/m 0 min 2 min 0 W/m 6,4 km/h (2 Bft) 97,87 %
14.04.2019 02:10 2,6 C 2,2 C 1,7 C 90 % 1021,0 hPa 0,0 l/m 0 min 0 min 0 W/m 3,2 km/h (1 Bft) 91,49 %
14.04.2019 02:12 2,6 C 2,2 C 1,7 C 90 % 1020,9 hPa 0,0 l/m 0 min 2 min 0 W/m 6,4 km/h (2 Bft) 95,74 %
14.04.2019 02:14 2,6 C 2,2 C 1,7 C 90 % 1021,0 hPa 0,0 l/m 0 min 2 min 0 W/m 6,4 km/h (2 Bft) 97,83 %
14.04.2019 02:16 2,6 C 1,7 C 1,7 C 90 % 1020,9 hPa 0,0 l/m 0 min 2 min 0 W/m 3,2 km/h (1 Bft) 97,87 %
14.04.2019 02:18 2,6 C 1,7 C 1,7 C 90 % 1020,9 hPa 0,0 l/m 0 min 2 min 0 W/m 6,4 km/h (2 Bft) 95,74 %
14.04.2019 02:20 2,6 C 1,7 C 1,7 C 90 % 1020,9 hPa 0,0 l/m 0 min 2 min 0 W/m 0,0 km/h (0 Bft) 97,87 %
14.04.2019 02:22 2,6 C 1,7 C 1,7 C 90 % 1020,9 hPa 0,0 l/m 0 min 0 min 0 W/m 12,9 km/h (3 Bft) 97,87 %
14.04.2019 02:24 2,6 C 1,7 C 1,7 C 90 % 1020,8 hPa 0,0 l/m 0 min 0 min 0 W/m 3,2 km/h (1 Bft) 97,87 %
14.04.2019 02:26 2,6 C 1,7 C 1,7 C 90 % 1020,8 hPa 0,0 l/m 0 min 0 min 0 W/m 0,0 km/h (0 Bft) 97,83 %
14.04.2019 02:28 2,6 C 1,7 C 1,1 C 90 % 1020,9 hPa 0,0 l/m 0 min 0 min 0 W/m 3,2 km/h (1 Bft) 97,87 %
14.04.2019 02:30 2,6 C 1,7 C 1,1 C 90 % 1020,9 hPa 0,0 l/m 0 min 0 min 0 W/m 3,2 km/h (1 Bft) 97,87 %
14.04.2019 02:32 2,6 C 1,7 C 1,1 C 90 % 1020,9 hPa 0,0 l/m 0 min 0 min 0 W/m 6,4 km/h (2 Bft) 97,87 %
14.04.2019 02:34 2,6 C 1,7 C 1,1 C 90 % 1021,0 hPa 0,0 l/m 0 min 0 min 0 W/m 0,0 km/h (0 Bft) 97,87 %
14.04.2019 02:36 2,6 C 1,7 C 1,1 C 90 % 1021,0 hPa 0,0 l/m 0 min 0 min 0 W/m 3,2 km/h (1 Bft) 95,74 %
14.04.2019 02:38 2,6 C 1,7 C 1,1 C 90 % 1021,0 hPa 0,0 l/m 0 min 0 min 0 W/m 3,2 km/h (1 Bft) 95,65 %
14.04.2019 02:40 2,5 C 1,7 C 1,7 C 90 % 1020,9 hPa 0,0 l/m 0 min 0 min 0 W/m 3,2 km/h (1 Bft) 97,87 %
14.04.2019 02:42 2,5 C 1,7 C 1,7 C 91 % 1020,8 hPa 0,0 l/m 0 min 0 min 0 W/m 3,2 km/h (1 Bft) 100,00 %
14.04.2019 02:44 2,5 C 1,7 C 1,7 C 91 % 1020,9 hPa 0,0 l/m 0 min 0 min 0 W/m 0,0 km/h (0 Bft) 100,00 %
14.04.2019 02:46 2,5 C 1,7 C 1,1 C 91 % 1020,9 hPa 0,0 l/m 0 min 0 min 0 W/m 3,2 km/h (1 Bft) 100,00 %
14.04.2019 02:48 2,5 C 1,7 C 1,1 C 91 % 1020,8 hPa 0,0 l/m 0 min 0 min 0 W/m 0,0 km/h (0 Bft) 95,74 %
14.04.2019 02:50 2,5 C 1,7 C 1,1 C 91 % 1020,9 hPa 0,0 l/m 0 min 0 min 0 W/m 3,2 km/h (1 Bft) 97,83 %
14.04.2019 02:52 2,5 C 1,7 C 1,1 C 91 % 1020,8 hPa 0,0 l/m 0 min 0 min 0 W/m 3,2 km/h (1 Bft) 100,00 %
14.04.2019 02:54 2,4 C 1,7 C 1,1 C 91 % 1020,9 hPa 0,0 l/m 0 min 0 min 0 W/m 0,0 km/h (0 Bft) 100,00 %
14.04.2019 02:56 2,4 C 1,7 C 1,1 C 91 % 1020,9 hPa 0,0 l/m 0 min 0 min 0 W/m 0,0 km/h (0 Bft) 100,00 %
14.04.2019 02:58 2,4 C 1,7 C 1,1 C 91 % 1020,9 hPa 0,0 l/m 0 min 0 min 0 W/m 0,0 km/h (0 Bft) 100,00 %
14.04.2019 03:00 2,4 C 1,7 C 1,1 C 91 % 1020,9 hPa 0,0 l/m 0 min 0 min 0 W/m 12,9 km/h (3 Bft) 100,00 %
14.04.2019 03:02 2,4 C 1,7 C 1,1 C 91 % 1020,9 hPa 0,0 l/m 0 min 0 min 0 W/m 6,4 km/h (2 Bft) 97,87 %
14.04.2019 03:04 2,4 C 1,7 C 1,1 C 91 % 1020,9 hPa 0,0 l/m 0 min 0 min 0 W/m 9,7 km/h (2 Bft) 100,00 %
14.04.2019 03:06 2,3 C 1,7 C 1,1 C 91 % 1021,0 hPa 0,0 l/m 0 min 0 min 0 W/m 6,4 km/h (2 Bft) 100,00 %
14.04.2019 03:08 2,3 C 1,7 C 1,1 C 91 % 1021,0 hPa 0,0 l/m 0 min 0 min 0 W/m 6,4 km/h (2 Bft) 100,00 %
14.04.2019 03:10 2,3 C 1,1 C 1,1 C 91 % 1021,0 hPa 0,0 l/m 0 min 0 min 0 W/m 3,2 km/h (1 Bft) 97,87 %
14.04.2019 03:12 2,3 C 1,1 C 1,1 C 91 % 1021,0 hPa 0,0 l/m 0 min 0 min 0 W/m 6,4 km/h (2 Bft) 100,00 %
14.04.2019 03:14 2,2 C 1,1 C 1,1 C 91 % 1021,0 hPa 0,0 l/m 0 min 0 min 0 W/m 6,4 km/h (2 Bft) 95,74 %
14.04.2019 03:16 2,2 C 1,1 C 1,1 C 91 % 1021,0 hPa 0,0 l/m 0 min 0 min 0 W/m 3,2 km/h (1 Bft) 95,74 %
14.04.2019 03:18 2,2 C 1,1 C 1,1 C 91 % 1021,0 hPa 0,0 l/m 0 min 0 min 0 W/m 6,4 km/h (2 Bft) 97,87 %
14.04.2019 03:20 2,2 C 1,1 C 1,1 C 91 % 1021,0 hPa 0,0 l/m 0 min 0 min 0 W/m 3,2 km/h (1 Bft) 97,87 %
14.04.2019 03:22 2,1 C 1,1 C 1,1 C 91 % 1021,0 hPa 0,0 l/m 0 min 0 min 0 W/m 3,2 km/h (1 Bft) 97,87 %
14.04.2019 03:24 2,1 C 1,1 C 1,1 C 91 % 1021,0 hPa 0,0 l/m 0 min 0 min 0 W/m 3,2 km/h (1 Bft) 95,65 %
14.04.2019 03:26 2,1 C 1,1 C 1,1 C 91 % 1021,0 hPa 0,0 l/m 0 min 0 min 0 W/m 3,2 km/h (1 Bft) 97,87 %
14.04.2019 03:28 2,1 C 1,1 C 1,1 C 91 % 1021,0 hPa 0,0 l/m 0 min 0 min 0 W/m 6,4 km/h (2 Bft) 93,62 %
14.04.2019 03:30 2,1 C 1,1 C 1,1 C 91 % 1021,1 hPa 0,0 l/m 0 min 0 min 0 W/m 6,4 km/h (2 Bft) 97,87 %
14.04.2019 03:32 2,1 C 1,1 C 1,1 C 91 % 1021,1 hPa 0,0 l/m 0 min 0 min 0 W/m 3,2 km/h (1 Bft) 97,87 %
14.04.2019 03:34 2,0 C 1,1 C 1,1 C 91 % 1021,0 hPa 0,0 l/m 0 min 0 min 0 W/m 6,4 km/h (2 Bft) 97,87 %
14.04.2019 03:36 2,0 C 1,1 C 1,1 C 91 % 1021,0 hPa 0,0 l/m 0 min 0 min 0 W/m 3,2 km/h (1 Bft) 97,83 %
14.04.2019 03:38 2,0 C 1,1 C 1,1 C 91 % 1021,1 hPa 0,0 l/m 0 min 0 min 0 W/m 3,2 km/h (1 Bft) 95,74 %
14.04.2019 03:40 2,0 C 1,1 C 1,1 C 91 % 1021,1 hPa 0,0 l/m 0 min 0 min 0 W/m 0,0 km/h (0 Bft) 97,87 %
14.04.2019 03:42 2,0 C 1,1 C 1,1 C 91 % 1021,0 hPa 0,0 l/m 0 min 0 min 0 W/m 3,2 km/h (1 Bft) 97,87 %
14.04.2019 03:44 2,0 C 1,1 C 1,1 C 91 % 1021,1 hPa 0,0 l/m 0 min 0 min 0 W/m 3,2 km/h (1 Bft) 97,87 %
14.04.2019 03:46 2,0 C 1,1 C 1,1 C 91 % 1021,0 hPa 0,0 l/m 0 min 0 min 0 W/m 6,4 km/h (2 Bft) 93,62 %
14.04.2019 03:48 2,0 C 1,1 C 1,1 C 91 % 1021,0 hPa 0,0 l/m 0 min 0 min 0 W/m 9,7 km/h (2 Bft) 97,83 %
14.04.2019 03:50 1,9 C 1,1 C 1,1 C 91 % 1021,1 hPa 0,0 l/m 0 min 0 min 0 W/m 6,4 km/h (2 Bft) 97,87 %
14.04.2019 03:52 1,9 C 1,1 C 1,1 C 91 % 1021,1 hPa 0,0 l/m 0 min 0 min 0 W/m 3,2 km/h (1 Bft) 97,87 %
14.04.2019 03:54 1,9 C 1,1 C 1,1 C 91 % 1021,0 hPa 0,0 l/m 0 min 0 min 0 W/m 6,4 km/h (2 Bft) 95,74 %
14.04.2019 03:56 1,9 C 1,1 C 1,1 C 91 % 1021,1 hPa 0,0 l/m 0 min 0 min 0 W/m 3,2 km/h (1 Bft) 93,62 %
14.04.2019 03:58 1,9 C 1,1 C 1,1 C 91 % 1021,0 hPa 0,0 l/m 0 min 0 min 0 W/m 6,4 km/h (2 Bft) 100,00 %
14.04.2019 04:00 1,8 C 1,1 C 0,6 C 91 % 1021,0 hPa 0,0 l/m 0 min 0 min 0 W/m 6,4 km/h (2 Bft) 97,83 %
14.04.2019 04:05 1,8 C 0,6 C 0,6 C 91 % 1021,0 hPa 0,0 l/m 0 min 0 min 0 W/m 3,2 km/h (1 Bft) 96,83 %
14.04.2019 04:06 1,8 C 0,6 C 0,6 C 91 % 1021,0 hPa 0,0 l/m 0 min 0 min 0 W/m 3,2 km/h (1 Bft) 95,83 %
14.04.2019 04:08 1,7 C 0,6 C 0,6 C 91 % 1020,9 hPa 0,0 l/m 0 min 0 min 0 W/m 3,2 km/h (1 Bft) 100,00 %
14.04.2019 04:10 1,7 C 1,1 C 0,6 C 91 % 1020,9 hPa 0,0 l/m 0 min 0 min 0 W/m 6,4 km/h (2 Bft) 97,83 %
14.04.2019 04:12 1,7 C 1,1 C 0,6 C 91 % 1021,0 hPa 0,0 l/m 0 min 0 min 0 W/m 6,4 km/h (2 Bft) 100,00 %
14.04.2019 04:14 1,7 C 1,1 C 0,6 C 91 % 1021,0 hPa 0,0 l/m 0 min 0 min 0 W/m 6,4 km/h (2 Bft) 97,87 %
14.04.2019 04:16 1,7 C 1,1 C 0,6 C 91 % 1021,1 hPa 0,0 l/m 0 min 0 min 0 W/m 3,2 km/h (1 Bft) 97,87 %
14.04.2019 04:18 1,7 C 1,1 C 0,6 C 91 % 1021,1 hPa 0,0 l/m 0 min 0 min 0 W/m 3,2 km/h (1 Bft) 97,87 %
14.04.2019 04:20 1,7 C 1,1 C 0,6 C 91 % 1021,1 hPa 0,0 l/m 0 min 0 min 0 W/m 3,2 km/h (1 Bft) 95,74 %
14.04.2019 04:22 1,7 C 1,1 C 0,6 C 91 % 1021,0 hPa 0,0 l/m 0 min 0 min 0 W/m 6,4 km/h (2 Bft) 97,83 %
14.04.2019 04:24 1,7 C 1,1 C 0,6 C 91 % 1021,0 hPa 0,0 l/m 0 min 0 min 0 W/m 9,7 km/h (2 Bft) 93,62 %
14.04.2019 04:26 1,7 C 1,1 C 0,6 C 91 % 1021,1 hPa 0,0 l/m 0 min 0 min 0 W/m 3,2 km/h (1 Bft) 97,87 %
14.04.2019 04:28 1,6 C 1,1 C 0,6 C 91 % 1021,1 hPa 0,0 l/m 0 min 0 min 0 W/m 6,4 km/h (2 Bft) 97,87 %
14.04.2019 04:30 1,6 C 1,1 C 0,6 C 91 % 1021,1 hPa 0,0 l/m 0 min 0 min 0 W/m 3,2 km/h (1 Bft) 95,74 %
14.04.2019 04:32 1,6 C 1,1 C 0,6 C 91 % 1021,1 hPa 0,0 l/m 0 min 0 min 0 W/m 9,7 km/h (2 Bft) 97,87 %
14.04.2019 04:34 1,6 C 1,1 C 0,6 C 91 % 1021,1 hPa 0,0 l/m 0 min 0 min 0 W/m 3,2 km/h (1 Bft) 95,65 %
14.04.2019 04:36 1,6 C 1,1 C 0,6 C 91 % 1021,1 hPa 0,0 l/m 0 min 0 min 0 W/m 6,4 km/h (2 Bft) 97,87 %
14.04.2019 04:38 1,6 C 1,1 C 0,6 C 91 % 1021,1 hPa 0,0 l/m 0 min 0 min 0 W/m 6,4 km/h (2 Bft) 97,87 %
14.04.2019 04:40 1,6 C 1,1 C 0,6 C 91 % 1021,1 hPa 0,0 l/m 0 min 0 min 0 W/m 6,4 km/h (2 Bft) 97,87 %
14.04.2019 04:42 1,6 C 1,1 C 0,6 C 91 % 1021,1 hPa 0,0 l/m 0 min 0 min 0 W/m 3,2 km/h (1 Bft) 97,87 %
14.04.2019 04:44 1,6 C 1,1 C 0,6 C 91 % 1021,1 hPa 0,0 l/m 0 min 0 min 0 W/m 3,2 km/h (1 Bft) 93,62 %
14.04.2019 04:46 1,6 C 0,6 C 0,6 C 91 % 1021,2 hPa 0,0 l/m 0 min 0 min 0 W/m 3,2 km/h (1 Bft) 97,83 %
14.04.2019 04:48 1,6 C 0,6 C 0,6 C 91 % 1021,1 hPa 0,0 l/m 0 min 0 min 0 W/m 6,4 km/h (2 Bft) 100,00 %
14.04.2019 04:50 1,6 C 0,6 C 0,6 C 91 % 1021,1 hPa 0,0 l/m 0 min 0 min 0 W/m 3,2 km/h (1 Bft) 100,00 %
14.04.2019 04:52 1,6 C 0,6 C 0,6 C 91 % 1021,1 hPa 0,0 l/m 0 min 0 min 0 W/m 3,2 km/h (1 Bft) 100,00 %
14.04.2019 04:54 1,6 C 0,6 C 0,6 C 91 % 1021,1 hPa 0,0 l/m 0 min 0 min 0 W/m 3,2 km/h (1 Bft) 100,00 %
14.04.2019 04:56 1,5 C 0,6 C 0,6 C 91 % 1021,1 hPa 0,0 l/m 0 min 0 min 0 W/m 0,0 km/h (0 Bft) 100,00 %
14.04.2019 04:58 1,5 C 0,6 C 0,6 C 91 % 1021,0 hPa 0,0 l/m 0 min 0 min 0 W/m 0,0 km/h (0 Bft) 100,00 %
14.04.2019 05:00 1,5 C 0,6 C 0,6 C 91 % 1021,0 hPa 0,0 l/m 0 min 0 min 0 W/m 0,0 km/h (0 Bft) 100,00 %
14.04.2019 05:02 1,5 C 0,6 C 0,6 C 91 % 1021,1 hPa 0,0 l/m 0 min 0 min 0 W/m 6,4 km/h (2 Bft) 93,62 %
14.04.2019 05:04 1,5 C 0,6 C 0,6 C 91 % 1021,1 hPa 0,0 l/m 0 min 0 min 0 W/m 6,4 km/h (2 Bft) 95,74 %
14.04.2019 05:05 1,5 C 0,6 C 0,6 C 91 % 1021,1 hPa 0,0 l/m 0 min 0 min 0 W/m 6,4 km/h (2 Bft) 98,25 %
14.04.2019 05:10 1,4 C 0,6 C 0,6 C 91 % 1021,0 hPa 0,0 l/m 0 min 0 min 0 W/m 6,4 km/h (2 Bft) 100,00 %
14.04.2019 05:12 1,4 C 0,6 C 0,6 C 91 % 1021,0 hPa 0,0 l/m 0 min 0 min 0 W/m 0,0 km/h (0 Bft) 91,67 %
14.04.2019 05:14 1,4 C 0,6 C 0,6 C 91 % 1021,0 hPa 0,0 l/m 0 min 0 min 0 W/m 0,0 km/h (0 Bft) 97,83 %
14.04.2019 05:19 1,4 C 1,1 C 0,6 C 91 % 1021,0 hPa 0,0 l/m 0 min 0 min 0 W/m 9,7 km/h (2 Bft) 95,24 %
14.04.2019 05:20 1,4 C 0,6 C 0,6 C 91 % 1021,0 hPa 0,0 l/m 0 min 0 min 0 W/m 3,2 km/h (1 Bft) 100,00 %
14.04.2019 05:22 1,4 C 0,6 C 0,6 C 91 % 1021,0 hPa 0,0 l/m 0 min 0 min 0 W/m 0,0 km/h (0 Bft) 95,74 %
14.04.2019 05:24 1,5 C 0,6 C 0,6 C 91 % 1020,9 hPa 0,0 l/m 0 min 0 min 0 W/m 0,0 km/h (0 Bft) 97,87 %
14.04.2019 05:26 1,4 C 0,6 C 0,6 C 91 % 1021,0 hPa 0,0 l/m 0 min 0 min 0 W/m 6,4 km/h (2 Bft) 97,87 %
14.04.2019 05:28 1,5 C 1,1 C 0,6 C 91 % 1021,1 hPa 0,0 l/m 0 min 0 min 0 W/m 6,4 km/h (2 Bft) 97,87 %
14.04.2019 05:30 1,5 C 1,1 C 0,6 C 91 % 1021,1 hPa 0,0 l/m 0 min 0 min 0 W/m 3,2 km/h (1 Bft) 95,74 %
14.04.2019 05:32 1,4 C 1,1 C 0,6 C 91 % 1021,0 hPa 0,0 l/m 0 min 0 min 0 W/m 0,0 km/h (0 Bft) 95,65 %
14.04.2019 05:34 1,5 C 1,1 C 0,6 C 92 % 1021,0 hPa 0,0 l/m 0 min 0 min 0 W/m 6,4 km/h (2 Bft) 97,87 %
14.04.2019 05:36 1,5 C 1,1 C 0,6 C 92 % 1021,0 hPa 0,0 l/m 0 min 0 min 0 W/m 9,7 km/h (2 Bft) 97,87 %
14.04.2019 05:38 1,5 C 1,1 C 0,6 C 92 % 1021,0 hPa 0,0 l/m 0 min 0 min 0 W/m 9,7 km/h (2 Bft) 95,74 %
14.04.2019 05:40 1,6 C 1,1 C 0,6 C 92 % 1021,0 hPa 0,0 l/m 0 min 0 min 0 W/m 6,4 km/h (2 Bft) 95,74 %
14.04.2019 05:42 1,6 C 1,1 C 0,6 C 92 % 1021,0 hPa 0,0 l/m 0 min 0 min 0 W/m 3,2 km/h (1 Bft) 97,87 %
14.04.2019 05:44 1,6 C 1,1 C 0,6 C 92 % 1021,0 hPa 0,0 l/m 0 min 0 min 0 W/m 6,4 km/h (2 Bft) 97,83 %
14.04.2019 05:46 1,6 C 1,1 C 0,6 C 92 % 1021,0 hPa 0,0 l/m 0 min 0 min 0 W/m 9,7 km/h (2 Bft) 97,87 %
14.04.2019 05:48 1,6 C 1,1 C 0,6 C 92 % 1021,0 hPa 0,0 l/m 0 min 0 min 0 W/m 9,7 km/h (2 Bft) 95,74 %
14.04.2019 05:50 1,6 C 1,1 C 0,6 C 92 % 1021,0 hPa 0,0 l/m 0 min 0 min 0 W/m 6,4 km/h (2 Bft) 97,87 %
14.04.2019 05:52 1,6 C 1,1 C 0,6 C 92 % 1021,0 hPa 0,0 l/m 0 min 0 min 0 W/m 3,2 km/h (1 Bft) 95,74 %
14.04.2019 05:54 1,6 C 1,1 C 0,6 C 92 % 1020,9 hPa 0,0 l/m 0 min 0 min 0 W/m 3,2 km/h (1 Bft) 93,62 %
14.04.2019 05:56 1,6 C 1,1 C 0,6 C 92 % 1020,9 hPa 0,0 l/m 0 min 0 min 0 W/m 3,2 km/h (1 Bft) 95,65 %
14.04.2019 05:58 1,6 C 0,6 C 0,6 C 92 % 1021,0 hPa 0,0 l/m 0 min 0 min 0 W/m 3,2 km/h (1 Bft) 97,87 %
14.04.2019 06:00 1,6 C 0,6 C 0,6 C 92 % 1021,1 hPa 0,0 l/m 0 min 0 min 0 W/m 0,0 km/h (0 Bft) 95,74 %
14.04.2019 06:02 1,6 C 0,6 C 0,6 C 92 % 1021,0 hPa 0,0 l/m 0 min 0 min 0 W/m 0,0 km/h (0 Bft) 97,87 %
14.04.2019 06:04 1,6 C 0,6 C 0,0 C 92 % 1021,0 hPa 0,0 l/m 0 min 0 min 0 W/m 3,2 km/h (1 Bft) 95,74 %
14.04.2019 06:07 1,6 C 0,6 C 0,0 C 92 % 1021,0 hPa 0,0 l/m 0 min 0 min 0 W/m 6,4 km/h (2 Bft) 95,71 %
14.04.2019 06:08 1,5 C 0,6 C 0,0 C 92 % 1021,0 hPa 0,0 l/m 0 min 0 min 0 W/m 3,2 km/h (1 Bft) 100,00 %
14.04.2019 06:10 1,5 C 0,6 C 0,0 C 92 % 1021,0 hPa 0,0 l/m 0 min 0 min 0 W/m 0,0 km/h (0 Bft) 93,62 %
14.04.2019 06:12 1,5 C 0,6 C 0,0 C 92 % 1021,0 hPa 0,0 l/m 0 min 0 min 0 W/m 0,0 km/h (0 Bft) 93,62 %
14.04.2019 06:14 1,5 C 0,6 C 0,0 C 92 % 1021,0 hPa 0,0 l/m 0 min 0 min 0 W/m 0,0 km/h (0 Bft) 91,49 %
14.04.2019 06:16 1,5 C 0,6 C 0,0 C 92 % 1021,0 hPa 0,0 l/m 0 min 0 min 0 W/m 0,0 km/h (0 Bft) 93,62 %
14.04.2019 06:18 1,4 C 0,6 C 0,6 C 92 % 1021,1 hPa 0,0 l/m 0 min 0 min 0 W/m 3,2 km/h (1 Bft) 95,65 %
14.04.2019 06:20 1,4 C 0,6 C 0,6 C 92 % 1021,1 hPa 0,0 l/m 0 min 0 min 0 W/m 0,0 km/h (0 Bft) 95,74 %
14.04.2019 06:22 1,4 C 0,6 C 0,6 C 92 % 1021,1 hPa 0,0 l/m 0 min 0 min 0 W/m 0,0 km/h (0 Bft) 91,49 %
14.04.2019 06:24 1,4 C 1,1 C 0,6 C 92 % 1021,1 hPa 0,0 l/m 0 min 0 min 0 W/m 3,2 km/h (1 Bft) 95,74 %
14.04.2019 06:26 1,4 C 0,6 C 0,6 C 92 % 1021,1 hPa 0,0 l/m 0 min 0 min 0 W/m 3,2 km/h (1 Bft) 95,74 %
14.04.2019 06:28 1,4 C 0,6 C 0,6 C 92 % 1021,1 hPa 0,0 l/m 0 min 0 min 0 W/m 3,2 km/h (1 Bft) 93,62 %
14.04.2019 06:30 1,4 C 1,1 C 0,6 C 92 % 1021,2 hPa 0,0 l/m 0 min 0 min 0 W/m 3,2 km/h (1 Bft) 93,48 %
14.04.2019 06:32 1,4 C 1,1 C 0,6 C 92 % 1021,2 hPa 0,0 l/m 0 min 0 min 0 W/m 0,0 km/h (0 Bft) 95,74 %
14.04.2019 06:34 1,4 C 1,1 C 0,6 C 92 % 1021,3 hPa 0,0 l/m 0 min 0 min 0 W/m 3,2 km/h (1 Bft) 93,62 %
14.04.2019 06:36 1,5 C 1,1 C 0,6 C 92 % 1021,2 hPa 0,0 l/m 0 min 0 min 0 W/m 3,2 km/h (1 Bft) 93,62 %
14.04.2019 06:38 1,5 C 1,1 C 0,6 C 92 % 1021,2 hPa 0,0 l/m 0 min 0 min 0 W/m 3,2 km/h (1 Bft) 95,74 %
14.04.2019 06:40 1,5 C 1,1 C 0,6 C 92 % 1021,2 hPa 0,0 l/m 0 min 0 min 0 W/m 3,2 km/h (1 Bft) 91,49 %
14.04.2019 06:42 1,5 C 1,1 C 0,6 C 92 % 1021,2 hPa 0,0 l/m 0 min 0 min 0 W/m 0,0 km/h (0 Bft) 95,65 %
14.04.2019 06:44 1,5 C 1,1 C 1,1 C 93 % 1021,3 hPa 0,0 l/m 0 min 0 min 0 W/m 0,0 km/h (0 Bft) 95,74 %
14.04.2019 06:46 1,6 C 1,1 C 1,1 C 93 % 1021,3 hPa 0,0 l/m 0 min 0 min 0 W/m 3,2 km/h (1 Bft) 95,74 %
14.04.2019 06:48 1,6 C 1,1 C 1,1 C 93 % 1021,3 hPa 0,0 l/m 0 min 0 min 0 W/m 0,0 km/h (0 Bft) 95,74 %
14.04.2019 06:50 1,6 C 1,1 C 1,1 C 93 % 1021,4 hPa 0,0 l/m 0 min 0 min 2 W/m 0,0 km/h (0 Bft) 95,74 %
14.04.2019 06:52 1,6 C 1,7 C 1,1 C 93 % 1021,4 hPa 0,0 l/m 0 min 0 min 5 W/m 3,2 km/h (1 Bft) 95,74 %
14.04.2019 06:54 1,6 C 1,7 C 1,1 C 93 % 1021,3 hPa 0,0 l/m 0 min 0 min 5 W/m 3,2 km/h (1 Bft) 93,48 %
14.04.2019 06:56 1,7 C 1,7 C 1,1 C 93 % 1021,3 hPa 0,0 l/m 0 min 0 min 5 W/m 3,2 km/h (1 Bft) 91,49 %
14.04.2019 06:58 1,7 C 1,7 C 1,1 C 93 % 1021,3 hPa 0,0 l/m 0 min 0 min 6 W/m 9,7 km/h (2 Bft) 97,87 %
14.04.2019 07:00 1,7 C 1,7 C 1,1 C 93 % 1021,3 hPa 0,0 l/m 0 min 0 min 7 W/m 6,4 km/h (2 Bft) 97,87 %
14.04.2019 07:02 1,7 C 1,7 C 1,1 C 93 % 1021,4 hPa 0,0 l/m 0 min 0 min 8 W/m 6,4 km/h (2 Bft) 95,74 %
14.04.2019 07:04 1,8 C 1,7 C 1,1 C 93 % 1021,3 hPa 0,0 l/m 0 min 0 min 10 W/m 3,2 km/h (1 Bft) 100,00 %
14.04.2019 07:06 1,8 C 1,7 C 1,1 C 93 % 1021,4 hPa 0,0 l/m 0 min 0 min 12 W/m 3,2 km/h (1 Bft) 93,62 %
14.04.2019 07:08 1,8 C 1,7 C 1,1 C 93 % 1021,3 hPa 0,0 l/m 0 min 0 min 14 W/m 0,0 km/h (0 Bft) 97,87 %
14.04.2019 07:10 1,8 C 1,7 C 1,1 C 93 % 1021,4 hPa 0,0 l/m 0 min 0 min 15 W/m 3,2 km/h (1 Bft) 97,87 %
14.04.2019 07:12 1,9 C 1,7 C 1,1 C 93 % 1021,5 hPa 0,0 l/m 0 min 0 min 18 W/m 3,2 km/h (1 Bft) 100,00 %
14.04.2019 07:14 1,9 C 1,7 C 1,1 C 93 % 1021,4 hPa 0,0 l/m 0 min 0 min 21 W/m 6,4 km/h (2 Bft) 100,00 %
14.04.2019 07:16 1,9 C 1,7 C 1,1 C 93 % 1021,5 hPa 0,0 l/m 0 min 0 min 21 W/m 3,2 km/h (1 Bft) 100,00 %
14.04.2019 07:18 1,9 C 1,7 C 1,7 C 93 % 1021,5 hPa 0,0 l/m 0 min 0 min 21 W/m 6,4 km/h (2 Bft) 100,00 %
14.04.2019 07:20 1,9 C 1,7 C 1,7 C 93 % 1021,5 hPa 0,0 l/m 0 min 0 min 23 W/m 6,4 km/h (2 Bft) 97,87 %
14.04.2019 07:22 1,9 C 1,7 C 1,7 C 93 % 1021,5 hPa 0,0 l/m 0 min 0 min 21 W/m 12,9 km/h (3 Bft) 100,00 %
14.04.2019 07:24 1,9 C 1,7 C 1,7 C 93 % 1021,5 hPa 0,0 l/m 0 min 0 min 21 W/m 6,4 km/h (2 Bft) 100,00 %
14.04.2019 07:26 2,0 C 2,2 C 1,7 C 93 % 1021,5 hPa 0,0 l/m 0 min 0 min 21 W/m 9,7 km/h (2 Bft) 100,00 %
14.04.2019 07:28 2,0 C 2,2 C 1,7 C 93 % 1021,5 hPa 0,0 l/m 0 min 0 min 21 W/m 3,2 km/h (1 Bft) 100,00 %
14.04.2019 07:30 2,1 C 2,2 C 1,7 C 93 % 1021,5 hPa 0,0 l/m 0 min 0 min 20 W/m 3,2 km/h (1 Bft) 100,00 %
14.04.2019 07:32 2,1 C 2,2 C 1,7 C 93 % 1021,5 hPa 0,0 l/m 0 min 0 min 19 W/m 6,4 km/h (2 Bft) 100,00 %
14.04.2019 07:34 2,1 C 2,2 C 1,7 C 93 % 1021,5 hPa 0,0 l/m 0 min 0 min 19 W/m 9,7 km/h (2 Bft) 97,87 %
14.04.2019 07:36 2,1 C 2,2 C 1,7 C 93 % 1021,6 hPa 0,0 l/m 0 min 0 min 19 W/m 6,4 km/h (2 Bft) 100,00 %
14.04.2019 07:38 2,2 C 2,2 C 1,7 C 93 % 1021,6 hPa 0,0 l/m 0 min 0 min 21 W/m 9,7 km/h (2 Bft) 100,00 %
14.04.2019 07:40 2,2 C 2,2 C 1,7 C 93 % 1021,6 hPa 0,0 l/m 0 min 0 min 24 W/m 9,7 km/h (2 Bft) 100,00 %
14.04.2019 07:42 2,2 C 2,2 C 1,7 C 93 % 1021,7 hPa 0,0 l/m 0 min 0 min 32 W/m 9,7 km/h (2 Bft) 100,00 %
14.04.2019 07:44 2,3 C 2,2 C 2,2 C 93 % 1021,7 hPa 0,0 l/m 0 min 0 min 40 W/m 3,2 km/h (1 Bft) 100,00 %
14.04.2019 07:46 2,3 C 2,8 C 2,2 C 93 % 1021,7 hPa 0,0 l/m 0 min 0 min 46 W/m 9,7 km/h (2 Bft) 100,00 %
14.04.2019 07:48 2,3 C 2,8 C 2,2 C 93 % 1021,7 hPa 0,0 l/m 0 min 0 min 47 W/m 9,7 km/h (2 Bft) 100,00 %
14.04.2019 07:50 2,3 C 2,8 C 2,2 C 93 % 1021,7 hPa 0,0 l/m 0 min 0 min 48 W/m 6,4 km/h (2 Bft) 100,00 %
14.04.2019 07:52 2,4 C 2,8 C 2,2 C 93 % 1021,7 hPa 0,0 l/m 0 min 0 min 53 W/m 9,7 km/h (2 Bft) 100,00 %
14.04.2019 07:54 2,4 C 2,8 C 2,2 C 93 % 1021,8 hPa 0,0 l/m 0 min 0 min 54 W/m 6,4 km/h (2 Bft) 97,87 %
14.04.2019 07:56 2,4 C 2,8 C 2,2 C 93 % 1021,8 hPa 0,0 l/m 0 min 0 min 53 W/m 16,1 km/h (3 Bft) 100,00 %
14.04.2019 07:58 2,5 C 2,8 C 2,2 C 93 % 1021,7 hPa 0,0 l/m 0 min 0 min 52 W/m 9,7 km/h (2 Bft) 100,00 %
14.04.2019 08:00 2,5 C 2,8 C 2,2 C 93 % 1021,6 hPa 0,0 l/m 0 min 0 min 55 W/m 6,4 km/h (2 Bft) 97,87 %
14.04.2019 08:02 2,6 C 2,8 C 2,2 C 93 % 1021,7 hPa 0,0 l/m 0 min 0 min 63 W/m 9,7 km/h (2 Bft) 100,00 %
14.04.2019 08:04 2,6 C 2,8 C 2,2 C 93 % 1021,7 hPa 0,0 l/m 0 min 0 min 62 W/m 9,7 km/h (2 Bft) 100,00 %
14.04.2019 08:06 2,6 C 2,8 C 2,2 C 93 % 1021,6 hPa 0,0 l/m 0 min 0 min 60 W/m 12,9 km/h (3 Bft) 100,00 %
14.04.2019 08:08 2,6 C 2,8 C 2,2 C 92 % 1021,7 hPa 0,0 l/m 0 min 0 min 57 W/m 9,7 km/h (2 Bft) 100,00 %
14.04.2019 08:10 2,6 C 2,8 C 2,2 C 93 % 1021,7 hPa 0,0 l/m 0 min 0 min 61 W/m 6,4 km/h (2 Bft) 95,74 %
14.04.2019 08:12 2,7 C 2,8 C 2,2 C 93 % 1021,7 hPa 0,0 l/m 0 min 0 min 60 W/m 9,7 km/h (2 Bft) 100,00 %
14.04.2019 08:14 2,7 C 2,8 C 2,2 C 92 % 1021,7 hPa 0,0 l/m 0 min 0 min 60 W/m 6,4 km/h (2 Bft) 97,87 %
14.04.2019 08:16 2,7 C 2,8 C 2,2 C 92 % 1021,7 hPa 0,0 l/m 0 min 0 min 59 W/m 9,7 km/h (2 Bft) 100,00 %
14.04.2019 08:18 2,7 C 2,8 C 2,2 C 92 % 1021,7 hPa 0,0 l/m 0 min 0 min 62 W/m 6,4 km/h (2 Bft) 100,00 %
14.04.2019 08:20 2,7 C 2,8 C 2,2 C 92 % 1021,8 hPa 0,0 l/m 0 min 0 min 67 W/m 16,1 km/h (3 Bft) 100,00 %
14.04.2019 08:22 2,7 C 2,8 C 2,8 C 92 % 1021,8 hPa 0,0 l/m 0 min 0 min 74 W/m 6,4 km/h (2 Bft) 100,00 %
14.04.2019 08:24 2,7 C 3,3 C 2,8 C 92 % 1021,8 hPa 0,0 l/m 0 min 0 min 81 W/m 6,4 km/h (2 Bft) 100,00 %
14.04.2019 08:26 2,8 C 3,3 C 2,8 C 92 % 1021,8 hPa 0,0 l/m 0 min 0 min 88 W/m 9,7 km/h (2 Bft) 100,00 %
14.04.2019 08:28 2,8 C 3,3 C 2,8 C 92 % 1021,9 hPa 0,0 l/m 0 min 0 min 98 W/m 9,7 km/h (2 Bft) 100,00 %
14.04.2019 08:30 2,8 C 3,3 C 3,3 C 92 % 1021,8 hPa 0,0 l/m 0 min 0 min 109 W/m 19,3 km/h (3 Bft) 97,87 %
14.04.2019 08:32 2,8 C 3,9 C 3,3 C 92 % 1021,8 hPa 0,0 l/m 0 min 0 min 117 W/m 9,7 km/h (2 Bft) 97,87 %
14.04.2019 08:34 2,9 C 3,9 C 3,3 C 92 % 1021,8 hPa 0,0 l/m 0 min 0 min 126 W/m 9,7 km/h (2 Bft) 97,87 %
14.04.2019 08:36 2,9 C 3,9 C 3,3 C 92 % 1021,8 hPa 0,0 l/m 0 min 0 min 130 W/m 3,2 km/h (1 Bft) 100,00 %
14.04.2019 08:38 2,9 C 3,9 C 3,3 C 92 % 1021,7 hPa 0,0 l/m 0 min 0 min 125 W/m 9,7 km/h (2 Bft) 100,00 %
14.04.2019 08:40 3,0 C 3,9 C 3,3 C 92 % 1021,7 hPa 0,0 l/m 0 min 0 min 123 W/m 6,4 km/h (2 Bft) 97,87 %
14.04.2019 08:42 3,1 C 3,9 C 3,3 C 92 % 1021,7 hPa 0,0 l/m 0 min 0 min 123 W/m 16,1 km/h (3 Bft) 97,87 %
14.04.2019 08:44 3,1 C 3,9 C 3,3 C 91 % 1021,8 hPa 0,0 l/m 0 min 0 min 125 W/m 6,4 km/h (2 Bft) 97,87 %
14.04.2019 08:46 3,2 C 4,4 C 3,9 C 91 % 1021,7 hPa 0,0 l/m 0 min 0 min 127 W/m 12,9 km/h (3 Bft) 97,87 %
14.04.2019 08:48 3,2 C 4,4 C 3,9 C 91 % 1021,7 hPa 0,0 l/m 0 min 0 min 128 W/m 12,9 km/h (3 Bft) 97,87 %
14.04.2019 08:50 3,2 C 4,4 C 3,9 C 91 % 1021,7 hPa 0,0 l/m 0 min 0 min 127 W/m 6,4 km/h (2 Bft) 97,83 %
14.04.2019 08:52 3,3 C 4,4 C 3,9 C 91 % 1021,8 hPa 0,0 l/m 0 min 0 min 127 W/m 6,4 km/h (2 Bft) 97,87 %
14.04.2019 08:54 3,3 C 4,4 C 3,9 C 91 % 1021,8 hPa 0,0 l/m 0 min 0 min 129 W/m 6,4 km/h (2 Bft) 87,23 %
14.04.2019 08:56 3,3 C 4,4 C 3,9 C 91 % 1021,9 hPa 0,0 l/m 0 min 0 min 135 W/m 6,4 km/h (2 Bft) 91,49 %
14.04.2019 08:58 3,4 C 5,0 C 3,9 C 90 % 1021,8 hPa 0,0 l/m 0 min 0 min 141 W/m 9,7 km/h (2 Bft) 91,49 %
14.04.2019 09:00 3,4 C 5,0 C 3,9 C 90 % 1021,8 hPa 0,0 l/m 0 min 0 min 145 W/m 9,7 km/h (2 Bft) 91,49 %
14.04.2019 09:02 3,4 C 5,0 C 4,4 C 90 % 1021,8 hPa 0,0 l/m 0 min 0 min 148 W/m 9,7 km/h (2 Bft) 95,65 %
14.04.2019 09:04 3,5 C 5,6 C 4,4 C 90 % 1021,9 hPa 0,0 l/m 0 min 0 min 148 W/m 12,9 km/h (3 Bft) 93,62 %
14.04.2019 09:06 3,5 C 5,6 C 4,4 C 90 % 1021,9 hPa 0,0 l/m 0 min 0 min 148 W/m 16,1 km/h (3 Bft) 93,62 %
14.04.2019 09:08 3,6 C 5,6 C 4,4 C 90 % 1021,9 hPa 0,0 l/m 0 min 0 min 145 W/m 16,1 km/h (3 Bft) 93,62 %
14.04.2019 09:10 3,6 C 5,6 C 4,4 C 90 % 1022,0 hPa 0,0 l/m 0 min 0 min 137 W/m 9,7 km/h (2 Bft) 91,49 %
14.04.2019 09:12 3,7 C 5,6 C 4,4 C 90 % 1021,9 hPa 0,0 l/m 0 min 0 min 138 W/m 12,9 km/h (3 Bft) 91,30 %
14.04.2019 09:14 3,7 C 6,1 C 4,4 C 89 % 1022,0 hPa 0,0 l/m 0 min 0 min 141 W/m 12,9 km/h (3 Bft) 91,49 %
14.04.2019 09:16 3,7 C 6,1 C 4,4 C 89 % 1022,0 hPa 0,0 l/m 0 min 0 min 143 W/m 9,7 km/h (2 Bft) 91,49 %
14.04.2019 09:18 3,8 C 6,1 C 4,4 C 89 % 1022,0 hPa 0,0 l/m 0 min 0 min 147 W/m 9,7 km/h (2 Bft) 93,62 %
14.04.2019 09:20 3,9 C 6,7 C 5,0 C 89 % 1022,0 hPa 0,0 l/m 0 min 0 min 153 W/m 12,9 km/h (3 Bft) 93,62 %
14.04.2019 09:22 3,9 C 7,2 C 5,0 C 89 % 1022,0 hPa 0,0 l/m 0 min 0 min 159 W/m 12,9 km/h (3 Bft) 91,49 %
14.04.2019 09:24 4,0 C 7,2 C 5,6 C 88 % 1022,1 hPa 0,0 l/m 0 min 0 min 160 W/m 9,7 km/h (2 Bft) 93,48 %
14.04.2019 09:26 4,1 C 7,2 C 5,6 C 88 % 1022,0 hPa 0,0 l/m 0 min 0 min 158 W/m 9,7 km/h (2 Bft) 87,23 %
14.04.2019 09:28 4,2 C 7,8 C 5,6 C 88 % 1022,0 hPa 0,0 l/m 0 min 0 min 163 W/m 9,7 km/h (2 Bft) 91,49 %
14.04.2019 09:30 4,2 C 7,8 C 5,6 C 88 % 1022,0 hPa 0,0 l/m 0 min 0 min 162 W/m 12,9 km/h (3 Bft) 93,62 %
14.04.2019 09:32 4,3 C 7,2 C 6,1 C 88 % 1022,1 hPa 0,0 l/m 0 min 0 min 163 W/m 16,1 km/h (3 Bft) 89,36 %
14.04.2019 09:34 4,4 C 7,8 C 6,1 C 88 % 1022,2 hPa 0,0 l/m 0 min 0 min 165 W/m 16,1 km/h (3 Bft) 95,74 %
14.04.2019 09:36 4,4 C 7,8 C 5,6 C 87 % 1022,2 hPa 0,0 l/m 0 min 0 min 168 W/m 12,9 km/h (3 Bft) 93,48 %
14.04.2019 09:38 4,5 C 8,3 C 5,6 C 87 % 1022,2 hPa 0,0 l/m 0 min 0 min 169 W/m 9,7 km/h (2 Bft) 95,74 %
14.04.2019 09:40 4,6 C 8,9 C 5,6 C 87 % 1022,2 hPa 0,0 l/m 0 min 0 min 169 W/m 16,1 km/h (3 Bft) 97,87 %
14.04.2019 09:42 4,7 C 9,4 C 6,7 C 86 % 1022,1 hPa 0,0 l/m 0 min 0 min 167 W/m 19,3 km/h (3 Bft) 97,87 %
14.04.2019 09:44 4,8 C 8,9 C 7,8 C 86 % 1022,1 hPa 0,0 l/m 0 min 0 min 165 W/m 16,1 km/h (3 Bft) 97,87 %
14.04.2019 09:46 4,8 C 8,9 C 8,3 C 86 % 1022,1 hPa 0,0 l/m 0 min 0 min 165 W/m 16,1 km/h (3 Bft) 100,00 %
14.04.2019 09:48 4,9 C 8,9 C 8,3 C 85 % 1022,1 hPa 0,0 l/m 0 min 0 min 168 W/m 12,9 km/h (3 Bft) 100,00 %
14.04.2019 09:50 4,9 C 8,3 C 8,3 C 85 % 1022,1 hPa 0,0 l/m 0 min 0 min 168 W/m 19,3 km/h (3 Bft) 100,00 %
14.04.2019 09:52 5,0 C 8,3 C 8,3 C 84 % 1022,0 hPa 0,0 l/m 0 min 0 min 166 W/m 19,3 km/h (3 Bft) 100,00 %
14.04.2019 09:54 5,1 C 8,3 C 8,3 C 84 % 1022,1 hPa 0,0 l/m 0 min 0 min 168 W/m 12,9 km/h (3 Bft) 97,87 %
14.04.2019 09:56 5,1 C 8,9 C 8,9 C 83 % 1022,0 hPa 0,0 l/m 0 min 0 min 173 W/m 19,3 km/h (3 Bft) 100,00 %
14.04.2019 09:58 5,2 C 9,4 C 8,9 C 83 % 1022,0 hPa 0,0 l/m 0 min 0 min 184 W/m 12,9 km/h (3 Bft) 100,00 %
14.04.2019 10:00 5,2 C 9,4 C 9,4 C 83 % 1022,0 hPa 0,0 l/m 0 min 0 min 198 W/m 16,1 km/h (3 Bft) 100,00 %
14.04.2019 10:02 5,3 C 9,4 C 9,4 C 83 % 1022,0 hPa 0,0 l/m 0 min 0 min 216 W/m 19,3 km/h (3 Bft) 97,87 %
14.04.2019 10:04 5,4 C 10,0 C 9,4 C 83 % 1022,1 hPa 0,0 l/m 0 min 0 min 241 W/m 12,9 km/h (3 Bft) 100,00 %
14.04.2019 10:06 5,4 C 9,4 C 9,4 C 82 % 1022,0 hPa 0,0 l/m 2 min 0 min 270 W/m 19,3 km/h (3 Bft) 100,00 %
14.04.2019 10:08 5,5 C 10,0 C 9,4 C 82 % 1022,0 hPa 0,0 l/m 2 min 0 min 301 W/m 12,9 km/h (3 Bft) 100,00 %
14.04.2019 10:10 5,6 C 10,6 C 10,6 C 82 % 1022,1 hPa 0,0 l/m 2 min 0 min 332 W/m 16,1 km/h (3 Bft) 100,00 %
14.04.2019 10:12 5,7 C 11,1 C 10,6 C 82 % 1022,0 hPa 0,0 l/m 2 min 0 min 364 W/m 12,9 km/h (3 Bft) 100,00 %
14.04.2019 10:14 5,8 C 11,1 C 10,6 C 81 % 1022,1 hPa 0,0 l/m 2 min 0 min 385 W/m 16,1 km/h (3 Bft) 100,00 %
14.04.2019 10:16 5,9 C 11,1 C 10,6 C 81 % 1022,1 hPa 0,0 l/m 2 min 0 min 405 W/m 16,1 km/h (3 Bft) 100,00 %
14.04.2019 10:18 5,9 C 11,1 C 10,6 C 81 % 1022,1 hPa 0,0 l/m 2 min 0 min 431 W/m 12,9 km/h (3 Bft) 97,87 %
14.04.2019 10:20 6,0 C 11,1 C 10,6 C 80 % 1022,1 hPa 0,0 l/m 2 min 0 min 438 W/m 16,1 km/h (3 Bft) 100,00 %
14.04.2019 10:22 6,1 C 11,1 C 10,6 C 80 % 1022,1 hPa 0,0 l/m 2 min 0 min 445 W/m 9,7 km/h (2 Bft) 100,00 %
14.04.2019 10:24 6,2 C 11,7 C 11,1 C 80 % 1022,2 hPa 0,0 l/m 2 min 0 min 451 W/m 12,9 km/h (3 Bft) 100,00 %
14.04.2019 10:26 6,3 C 11,7 C 11,1 C 80 % 1022,2 hPa 0,0 l/m 2 min 0 min 457 W/m 22,5 km/h (4 Bft) 97,83 %
14.04.2019 10:28 6,4 C 11,7 C 11,1 C 80 % 1022,2 hPa 0,0 l/m 2 min 0 min 461 W/m 16,1 km/h (3 Bft) 100,00 %
14.04.2019 10:30 6,4 C 11,7 C 11,1 C 80 % 1022,2 hPa 0,0 l/m 2 min 0 min 462 W/m 16,1 km/h (3 Bft) 100,00 %
14.04.2019 10:32 6,6 C 12,8 C 11,7 C 80 % 1022,2 hPa 0,0 l/m 2 min 0 min 473 W/m 9,7 km/h (2 Bft) 100,00 %
14.04.2019 10:34 6,7 C 12,2 C 11,7 C 80 % 1022,1 hPa 0,0 l/m 2 min 0 min 479 W/m 12,9 km/h (3 Bft) 100,00 %
14.04.2019 10:36 6,8 C 11,7 C 11,1 C 78 % 1022,2 hPa 0,0 l/m 2 min 0 min 483 W/m 16,1 km/h (3 Bft) 100,00 %
14.04.2019 10:38 6,8 C 11,7 C 11,1 C 78 % 1022,2 hPa 0,0 l/m 2 min 0 min 495 W/m 12,9 km/h (3 Bft) 100,00 %
14.04.2019 10:40 6,8 C 11,7 C 11,7 C 78 % 1022,2 hPa 0,0 l/m 2 min 0 min 500 W/m 19,3 km/h (3 Bft) 100,00 %
14.04.2019 10:42 6,9 C 12,2 C 11,7 C 77 % 1022,2 hPa 0,0 l/m 2 min 0 min 514 W/m 9,7 km/h (2 Bft) 100,00 %
14.04.2019 10:44 7,0 C 12,8 C 11,7 C 77 % 1022,2 hPa 0,0 l/m 2 min 0 min 516 W/m 9,7 km/h (2 Bft) 100,00 %
14.04.2019 10:46 7,1 C 12,2 C 12,2 C 77 % 1022,2 hPa 0,0 l/m 2 min 0 min 526 W/m 16,1 km/h (3 Bft) 100,00 %
14.04.2019 10:48 7,1 C 13,3 C 12,2 C 77 % 1022,3 hPa 0,0 l/m 2 min 0 min 524 W/m 12,9 km/h (3 Bft) 100,00 %
14.04.2019 10:50 7,2 C 12,8 C 12,2 C 77 % 1022,2 hPa 0,0 l/m 2 min 0 min 529 W/m 12,9 km/h (3 Bft) 97,83 %
14.04.2019 10:52 7,3 C 13,3 C 12,2 C 76 % 1022,2 hPa 0,0 l/m 2 min 0 min 535 W/m 16,1 km/h (3 Bft) 100,00 %
14.04.2019 10:54 7,3 C 12,8 C 12,2 C 75 % 1022,2 hPa 0,0 l/m 2 min 0 min 540 W/m 22,5 km/h (4 Bft) 97,87 %
14.04.2019 10:56 7,4 C 12,8 C 12,2 C 75 % 1022,2 hPa 0,0 l/m 2 min 0 min 545 W/m 19,3 km/h (3 Bft) 100,00 %
14.04.2019 10:58 7,4 C 12,8 C 12,8 C 75 % 1022,2 hPa 0,0 l/m 2 min 0 min 540 W/m 16,1 km/h (3 Bft) 100,00 %
14.04.2019 11:00 7,5 C 12,8 C 12,8 C 74 % 1022,2 hPa 0,0 l/m 2 min 0 min 540 W/m 16,1 km/h (3 Bft) 97,87 %
14.04.2019 11:02 7,5 C 12,8 C 12,2 C 73 % 1022,2 hPa 0,0 l/m 2 min 0 min 544 W/m 22,5 km/h (4 Bft) 100,00 %
14.04.2019 11:04 7,6 C 13,3 C 12,8 C 73 % 1022,2 hPa 0,0 l/m 2 min 0 min 558 W/m 12,9 km/h (3 Bft) 100,00 %
14.04.2019 11:06 7,7 C 13,3 C 12,8 C 73 % 1022,3 hPa 0,0 l/m 2 min 0 min 567 W/m 16,1 km/h (3 Bft) 100,00 %
14.04.2019 11:08 7,7 C 13,3 C 12,8 C 73 % 1022,3 hPa 0,0 l/m 2 min 0 min 570 W/m 19,3 km/h (3 Bft) 100,00 %
14.04.2019 11:10 7,8 C 13,3 C 12,8 C 73 % 1022,2 hPa 0,0 l/m 2 min 0 min 572 W/m 16,1 km/h (3 Bft) 100,00 %
14.04.2019 11:12 7,8 C 13,3 C 12,8 C 73 % 1022,3 hPa 0,0 l/m 2 min 0 min 573 W/m 12,9 km/h (3 Bft) 100,00 %
14.04.2019 11:14 7,9 C 13,3 C 13,3 C 73 % 1022,3 hPa 0,0 l/m 2 min 0 min 573 W/m 12,9 km/h (3 Bft) 100,00 %
14.04.2019 11:16 8,0 C 13,9 C 13,3 C 73 % 1022,2 hPa 0,0 l/m 2 min 0 min 571 W/m 12,9 km/h (3 Bft) 100,00 %
14.04.2019 11:18 8,1 C 13,9 C 13,9 C 73 % 1022,2 hPa 0,0 l/m 2 min 0 min 583 W/m 12,9 km/h (3 Bft) 97,87 %
14.04.2019 11:20 8,1 C 13,3 C 13,3 C 72 % 1022,2 hPa 0,0 l/m 2 min 0 min 591 W/m 12,9 km/h (3 Bft) 97,87 %
14.04.2019 11:22 8,1 C 13,3 C 12,8 C 71 % 1022,3 hPa 0,0 l/m 2 min 0 min 605 W/m 16,1 km/h (3 Bft) 95,74 %
14.04.2019 11:24 8,2 C 13,3 C 13,3 C 72 % 1022,3 hPa 0,0 l/m 2 min 0 min 613 W/m 16,1 km/h (3 Bft) 97,87 %
14.04.2019 11:26 8,3 C 13,9 C 13,9 C 71 % 1022,2 hPa 0,0 l/m 2 min 0 min 622 W/m 16,1 km/h (3 Bft) 100,00 %
14.04.2019 11:28 8,4 C 15,0 C 13,9 C 71 % 1022,3 hPa 0,0 l/m 2 min 0 min 626 W/m 12,9 km/h (3 Bft) 97,87 %
14.04.2019 11:30 8,4 C 14,4 C 13,9 C 70 % 1022,3 hPa 0,0 l/m 2 min 0 min 633 W/m 16,1 km/h (3 Bft) 95,74 %
14.04.2019 11:32 8,5 C 14,4 C 12,8 C 69 % 1022,3 hPa 0,0 l/m 2 min 0 min 631 W/m 12,9 km/h (3 Bft) 97,87 %
14.04.2019 11:34 8,6 C 13,9 C 11,7 C 69 % 1022,3 hPa 0,0 l/m 2 min 0 min 637 W/m 19,3 km/h (3 Bft) 95,74 %
14.04.2019 11:36 8,6 C 14,4 C 11,1 C 68 % 1022,3 hPa 0,0 l/m 2 min 0 min 636 W/m 16,1 km/h (3 Bft) 94,83 %
14.04.2019 11:38 8,7 C 14,4 C 11,1 C 68 % 1022,4 hPa 0,0 l/m 2 min 0 min 635 W/m 16,1 km/h (3 Bft) 100,00 %
14.04.2019 11:40 8,7 C 13,9 C 10,6 C 67 % 1022,4 hPa 0,0 l/m 2 min 0 min 634 W/m 19,3 km/h (3 Bft) 95,74 %
14.04.2019 11:42 8,7 C 13,9 C 10,0 C 66 % 1022,5 hPa 0,0 l/m 2 min 0 min 642 W/m 22,5 km/h (4 Bft) 95,74 %
14.04.2019 11:44 8,7 C 13,3 C 10,0 C 66 % 1022,4 hPa 0,0 l/m 2 min 0 min 649 W/m 19,3 km/h (3 Bft) 97,87 %
14.04.2019 11:46 8,7 C 13,3 C 10,0 C 66 % 1022,4 hPa 0,0 l/m 2 min 0 min 651 W/m 22,5 km/h (4 Bft) 95,74 %
14.04.2019 11:48 8,8 C 14,4 C 10,0 C 66 % 1022,4 hPa 0,0 l/m 2 min 0 min 654 W/m 16,1 km/h (3 Bft) 97,83 %
14.04.2019 11:50 8,8 C 14,4 C 10,6 C 66 % 1022,3 hPa 0,0 l/m 2 min 0 min 656 W/m 16,1 km/h (3 Bft) 97,87 %
14.04.2019 11:52 8,9 C 14,4 C 10,6 C 67 % 1022,3 hPa 0,0 l/m 2 min 0 min 660 W/m 16,1 km/h (3 Bft) 95,74 %
14.04.2019 11:54 9,0 C 15,0 C 10,6 C 66 % 1022,3 hPa 0,0 l/m 2 min 0 min 659 W/m 22,5 km/h (4 Bft) 97,87 %
14.04.2019 11:56 9,1 C 15,0 C 10,6 C 67 % 1022,3 hPa 0,0 l/m 2 min 0 min 665 W/m 12,9 km/h (3 Bft) 93,62 %
14.04.2019 11:58 9,1 C 15,6 C 10,6 C 66 % 1022,4 hPa 0,0 l/m 2 min 0 min 670 W/m 16,1 km/h (3 Bft) 95,74 %
14.04.2019 12:00 9,2 C 15,0 C 10,6 C 65 % 1022,2 hPa 0,0 l/m 2 min 0 min 670 W/m 19,3 km/h (3 Bft) 95,65 %
14.04.2019 12:02 9,3 C 16,1 C 11,1 C 66 % 1022,2 hPa 0,0 l/m 2 min 0 min 665 W/m 12,9 km/h (3 Bft) 91,49 %
14.04.2019 12:04 9,4 C 15,0 C 10,6 C 64 % 1022,2 hPa 0,0 l/m 2 min 0 min 675 W/m 22,5 km/h (4 Bft) 95,74 %
14.04.2019 12:07 9,4 C 14,4 C 10,6 C 64 % 1022,2 hPa 0,0 l/m 3 min 0 min 690 W/m 19,3 km/h (3 Bft) 95,12 %
14.04.2019 12:08 9,4 C 15,0 C 10,6 C 64 % 1022,2 hPa 0,0 l/m 1 min 0 min 700 W/m 19,3 km/h (3 Bft) 91,67 %
14.04.2019 12:10 9,4 C 15,6 C 11,1 C 64 % 1022,2 hPa 0,0 l/m 2 min 0 min 699 W/m 22,5 km/h (4 Bft) 97,87 %
14.04.2019 12:12 9,6 C 16,7 C 11,7 C 65 % 1022,2 hPa 0,0 l/m 2 min 0 min 709 W/m 16,1 km/h (3 Bft) 97,83 %
14.04.2019 12:14 9,6 C 16,1 C 11,1 C 64 % 1022,2 hPa 0,0 l/m 2 min 0 min 712 W/m 16,1 km/h (3 Bft) 95,74 %
14.04.2019 12:16 9,7 C 15,6 C 11,1 C 62 % 1022,3 hPa 0,0 l/m 2 min 0 min 711 W/m 22,5 km/h (4 Bft) 97,87 %
14.04.2019 12:18 9,7 C 15,0 C 11,1 C 62 % 1022,3 hPa 0,0 l/m 2 min 0 min 710 W/m 32,2 km/h (5 Bft) 95,74 %
14.04.2019 12:20 9,7 C 15,6 C 11,1 C 62 % 1022,2 hPa 0,0 l/m 2 min 0 min 715 W/m 16,1 km/h (3 Bft) 97,87 %
14.04.2019 12:22 9,8 C 15,6 C 10,6 C 62 % 1022,2 hPa 0,0 l/m 2 min 0 min 721 W/m 19,3 km/h (3 Bft) 97,87 %
14.04.2019 12:24 9,8 C 15,6 C 11,1 C 61 % 1022,2 hPa 0,0 l/m 2 min 0 min 722 W/m 19,3 km/h (3 Bft) 97,83 %
14.04.2019 12:26 9,8 C 15,6 C 11,1 C 61 % 1022,2 hPa 0,0 l/m 2 min 0 min 728 W/m 19,3 km/h (3 Bft) 97,87 %
14.04.2019 12:28 9,9 C 15,6 C 11,1 C 60 % 1022,1 hPa 0,0 l/m 2 min 0 min 737 W/m 19,3 km/h (3 Bft) 95,74 %
14.04.2019 12:30 9,9 C 16,1 C 11,1 C 61 % 1022,1 hPa 0,0 l/m 2 min 0 min 740 W/m 16,1 km/h (3 Bft) 97,87 %
14.04.2019 12:32 9,9 C 15,6 C 11,1 C 61 % 1022,2 hPa 0,0 l/m 2 min 0 min 744 W/m 22,5 km/h (4 Bft) 97,87 %
14.04.2019 12:34 10,0 C 16,1 C 11,7 C 61 % 1022,1 hPa 0,0 l/m 2 min 0 min 739 W/m 19,3 km/h (3 Bft) 97,87 %
14.04.2019 12:36 10,1 C 16,1 C 11,7 C 61 % 1022,2 hPa 0,0 l/m 2 min 0 min 730 W/m 16,1 km/h (3 Bft) 98,28 %
14.04.2019 12:38 10,1 C 16,7 C 11,7 C 61 % 1022,2 hPa 0,0 l/m 2 min 0 min 736 W/m 16,1 km/h (3 Bft) 93,62 %
14.04.2019 12:40 10,2 C 16,7 C 11,7 C 61 % 1022,2 hPa 0,0 l/m 2 min 0 min 743 W/m 25,7 km/h (4 Bft) 100,00 %
14.04.2019 12:42 10,3 C 16,7 C 11,7 C 60 % 1022,3 hPa 0,0 l/m 2 min 0 min 735 W/m 16,1 km/h (3 Bft) 97,87 %
14.04.2019 12:44 10,3 C 16,1 C 11,7 C 60 % 1022,3 hPa 0,0 l/m 2 min 0 min 726 W/m 25,7 km/h (4 Bft) 95,74 %
14.04.2019 12:46 10,4 C 16,7 C 11,7 C 60 % 1022,2 hPa 0,0 l/m 2 min 0 min 737 W/m 16,1 km/h (3 Bft) 95,65 %
14.04.2019 12:48 10,4 C 16,7 C 12,2 C 60 % 1022,2 hPa 0,0 l/m 2 min 0 min 753 W/m 22,5 km/h (4 Bft) 97,87 %
14.04.2019 12:50 10,4 C 16,1 C 11,7 C 58 % 1022,1 hPa 0,0 l/m 2 min 0 min 723 W/m 12,9 km/h (3 Bft) 100,00 %
14.04.2019 12:52 10,4 C 16,7 C 12,2 C 60 % 1022,2 hPa 0,0 l/m 2 min 0 min 721 W/m 12,9 km/h (3 Bft) 100,00 %
14.04.2019 12:54 10,6 C 17,8 C 12,8 C 60 % 1022,2 hPa 0,0 l/m 2 min 0 min 717 W/m 19,3 km/h (3 Bft) 100,00 %
14.04.2019 12:56 10,7 C 17,8 C 12,2 C 61 % 1022,2 hPa 0,0 l/m 2 min 0 min 709 W/m 16,1 km/h (3 Bft) 100,00 %
14.04.2019 12:58 10,7 C 17,2 C 12,2 C 60 % 1022,2 hPa 0,0 l/m 2 min 0 min 668 W/m 19,3 km/h (3 Bft) 100,00 %
14.04.2019 13:00 10,8 C 16,1 C 12,2 C 59 % 1022,2 hPa 0,0 l/m 2 min 0 min 749 W/m 19,3 km/h (3 Bft) 97,87 %
14.04.2019 13:02 10,8 C 15,6 C 12,2 C 59 % 1022,2 hPa 0,0 l/m 2 min 0 min 568 W/m 12,9 km/h (3 Bft) 97,87 %
14.04.2019 13:04 10,8 C 15,6 C 12,2 C 57 % 1022,2 hPa 0,0 l/m 2 min 0 min 694 W/m 19,3 km/h (3 Bft) 100,00 %
14.04.2019 13:06 10,8 C 16,1 C 12,2 C 56 % 1022,4 hPa 0,0 l/m 2 min 0 min 778 W/m 19,3 km/h (3 Bft) 98,28 %
14.04.2019 13:08 10,8 C 16,7 C 12,2 C 57 % 1022,2 hPa 0,0 l/m 2 min 0 min 784 W/m 16,1 km/h (3 Bft) 100,00 %
14.04.2019 13:10 10,8 C 16,7 C 12,8 C 58 % 1022,3 hPa 0,0 l/m 2 min 0 min 791 W/m 19,3 km/h (3 Bft) 97,83 %
14.04.2019 13:12 10,8 C 17,2 C 12,8 C 58 % 1022,2 hPa 0,0 l/m 2 min 0 min 772 W/m 19,3 km/h (3 Bft) 100,00 %
14.04.2019 13:14 10,9 C 17,2 C 12,8 C 59 % 1022,2 hPa 0,0 l/m 2 min 0 min 762 W/m 19,3 km/h (3 Bft) 100,00 %
14.04.2019 13:16 10,9 C 17,2 C 12,8 C 57 % 1022,2 hPa 0,0 l/m 2 min 0 min 745 W/m 19,3 km/h (3 Bft) 100,00 %
14.04.2019 13:18 11,1 C 18,3 C 13,3 C 58 % 1022,3 hPa 0,0 l/m 2 min 0 min 765 W/m 12,9 km/h (3 Bft) 97,87 %
14.04.2019 13:20 11,2 C 17,2 C 13,9 C 58 % 1022,2 hPa 0,0 l/m 2 min 0 min 715 W/m 16,1 km/h (3 Bft) 100,00 %
14.04.2019 13:22 11,2 C 16,7 C 14,4 C 57 % 1022,3 hPa 0,0 l/m 2 min 0 min 742 W/m 22,5 km/h (4 Bft) 100,00 %
14.04.2019 13:24 11,3 C 17,8 C 16,1 C 58 % 1022,3 hPa 0,0 l/m 2 min 0 min 755 W/m 16,1 km/h (3 Bft) 100,00 %
14.04.2019 13:26 11,3 C 16,7 C 16,7 C 56 % 1022,4 hPa 0,0 l/m 2 min 0 min 763 W/m 22,5 km/h (4 Bft) 100,00 %
14.04.2019 13:28 11,4 C 17,8 C 18,3 C 57 % 1022,4 hPa 0,0 l/m 2 min 0 min 770 W/m 12,9 km/h (3 Bft) 100,00 %
14.04.2019 13:30 11,5 C 17,8 C 18,3 C 57 % 1022,3 hPa 0,0 l/m 2 min 0 min 800 W/m 19,3 km/h (3 Bft) 100,00 %
14.04.2019 13:32 11,6 C 18,3 C 18,9 C 57 % 1022,4 hPa 0,0 l/m 2 min 0 min 810 W/m 22,5 km/h (4 Bft) 100,00 %
14.04.2019 13:34 11,6 C 17,2 C 18,3 C 56 % 1022,3 hPa 0,0 l/m 2 min 0 min 817 W/m 16,1 km/h (3 Bft) 100,00 %
14.04.2019 13:36 11,6 C 17,2 C 18,3 C 56 % 1022,3 hPa 0,0 l/m 2 min 0 min 823 W/m 16,1 km/h (3 Bft) 100,00 %
14.04.2019 13:38 11,6 C 17,2 C 18,9 C 56 % 1022,2 hPa 0,0 l/m 2 min 0 min 821 W/m 16,1 km/h (3 Bft) 100,00 %
14.04.2019 13:40 11,6 C 18,3 C 19,4 C 57 % 1022,3 hPa 0,0 l/m 2 min 0 min 807 W/m 16,1 km/h (3 Bft) 100,00 %
14.04.2019 13:42 11,7 C 17,8 C 18,9 C 56 % 1022,2 hPa 0,0 l/m 2 min 0 min 798 W/m 19,3 km/h (3 Bft) 100,00 %
14.04.2019 13:44 11,7 C 17,2 C 19,4 C 56 % 1022,3 hPa 0,0 l/m 2 min 0 min 800 W/m 19,3 km/h (3 Bft) 100,00 %
14.04.2019 13:46 11,7 C 17,2 C 19,4 C 55 % 1022,3 hPa 0,0 l/m 2 min 0 min 795 W/m 16,1 km/h (3 Bft) 97,83 %
14.04.2019 13:48 11,8 C 17,8 C 19,4 C 56 % 1022,4 hPa 0,0 l/m 2 min 0 min 792 W/m 16,1 km/h (3 Bft) 100,00 %
14.04.2019 13:50 11,8 C 18,3 C 19,4 C 55 % 1022,3 hPa 0,0 l/m 2 min 0 min 772 W/m 12,9 km/h (3 Bft) 100,00 %
14.04.2019 13:52 11,9 C 17,8 C 19,4 C 54 % 1022,3 hPa 0,0 l/m 2 min 0 min 789 W/m 19,3 km/h (3 Bft) 100,00 %
14.04.2019 13:54 11,9 C 17,2 C 19,4 C 55 % 1022,4 hPa 0,0 l/m 2 min 0 min 785 W/m 22,5 km/h (4 Bft) 97,87 %
14.04.2019 13:56 11,9 C 16,7 C 18,3 C 55 % 1022,3 hPa 0,0 l/m 2 min 0 min 769 W/m 16,1 km/h (3 Bft) 97,83 %
14.04.2019 13:58 11,9 C 17,2 C 18,9 C 54 % 1022,3 hPa 0,0 l/m 2 min 0 min 759 W/m 16,1 km/h (3 Bft) 95,74 %
14.04.2019 14:00 12,0 C 17,8 C 18,3 C 54 % 1022,3 hPa 0,0 l/m 2 min 0 min 772 W/m 16,1 km/h (3 Bft) 97,87 %
14.04.2019 14:02 12,1 C 18,3 C 18,3 C 55 % 1022,4 hPa 0,0 l/m 2 min 0 min 773 W/m 19,3 km/h (3 Bft) 95,74 %
14.04.2019 14:04 12,1 C 18,9 C 19,4 C 54 % 1022,2 hPa 0,0 l/m 2 min 0 min 758 W/m 12,9 km/h (3 Bft) 97,87 %
14.04.2019 14:06 12,2 C 18,9 C 20,0 C 56 % 1022,2 hPa 0,0 l/m 2 min 0 min 769 W/m 12,9 km/h (3 Bft) 96,55 %
14.04.2019 14:08 12,3 C 18,3 C 20,0 C 53 % 1022,3 hPa 0,0 l/m 2 min 0 min 777 W/m 22,5 km/h (4 Bft) 97,14 %
14.04.2019 14:10 12,3 C 17,8 C 19,4 C 52 % 1022,3 hPa 0,0 l/m 2 min 0 min 767 W/m 16,1 km/h (3 Bft) 97,87 %
14.04.2019 14:12 12,3 C 17,8 C 19,4 C 52 % 1022,3 hPa 0,0 l/m 2 min 0 min 744 W/m 16,1 km/h (3 Bft) 97,87 %
14.04.2019 14:14 12,3 C 17,2 C 19,4 C 53 % 1022,3 hPa 0,0 l/m 2 min 0 min 766 W/m 22,5 km/h (4 Bft) 97,87 %
14.04.2019 14:16 12,3 C 17,8 C 18,9 C 54 % 1022,4 hPa 0,0 l/m 2 min 0 min 775 W/m 22,5 km/h (4 Bft) 93,62 %
14.04.2019 14:18 12,3 C 17,2 C 18,9 C 53 % 1022,3 hPa 0,0 l/m 2 min 0 min 764 W/m 25,7 km/h (4 Bft) 97,87 %
14.04.2019 14:20 12,2 C 17,2 C 18,9 C 54 % 1022,3 hPa 0,0 l/m 2 min 0 min 757 W/m 16,1 km/h (3 Bft) 97,83 %
14.04.2019 14:22 12,2 C 17,8 C 19,4 C 54 % 1022,3 hPa 0,0 l/m 2 min 0 min 768 W/m 16,1 km/h (3 Bft) 97,87 %
14.04.2019 14:24 12,2 C 17,8 C 19,4 C 54 % 1022,3 hPa 0,0 l/m 2 min 0 min 773 W/m 16,1 km/h (3 Bft) 97,87 %
14.04.2019 14:26 12,2 C 18,3 C 19,4 C 54 % 1022,3 hPa 0,0 l/m 2 min 0 min 780 W/m 16,1 km/h (3 Bft) 95,74 %
14.04.2019 14:28 12,2 C 17,8 C 19,4 C 54 % 1022,3 hPa 0,0 l/m 2 min 0 min 796 W/m 32,2 km/h (5 Bft) 93,62 %
14.04.2019 14:30 12,3 C 16,1 C 17,8 C 54 % 1022,2 hPa 0,0 l/m 2 min 0 min 798 W/m 22,5 km/h (4 Bft) 97,87 %
14.04.2019 14:32 12,3 C 16,7 C 17,8 C 54 % 1022,3 hPa 0,0 l/m 2 min 0 min 798 W/m 12,9 km/h (3 Bft) 91,30 %
14.04.2019 14:34 12,3 C 17,8 C 18,9 C 54 % 1022,2 hPa 0,0 l/m 2 min 0 min 794 W/m 16,1 km/h (3 Bft) 95,74 %
14.04.2019 14:36 12,3 C 17,2 C 17,8 C 54 % 1022,2 hPa 0,0 l/m 2 min 0 min 781 W/m 16,1 km/h (3 Bft) 96,61 %
14.04.2019 14:38 12,3 C 15,6 C 16,7 C 53 % 1022,3 hPa 0,0 l/m 2 min 0 min 458 W/m 16,1 km/h (3 Bft) 97,14 %
14.04.2019 14:40 12,3 C 16,7 C 17,2 C 52 % 1022,2 hPa 0,0 l/m 2 min 0 min 595 W/m 12,9 km/h (3 Bft) 100,00 %
14.04.2019 14:42 12,3 C 17,2 C 18,3 C 52 % 1022,3 hPa 0,0 l/m 2 min 0 min 760 W/m 16,1 km/h (3 Bft) 100,00 %
14.04.2019 14:44 12,3 C 17,2 C 18,3 C 52 % 1022,4 hPa 0,0 l/m 2 min 0 min 757 W/m 22,5 km/h (4 Bft) 95,74 %
14.04.2019 14:46 12,3 C 17,8 C 18,9 C 53 % 1022,3 hPa 0,0 l/m 2 min 0 min 773 W/m 12,9 km/h (3 Bft) 97,87 %
14.04.2019 14:48 12,3 C 18,3 C 18,9 C 53 % 1022,2 hPa 0,0 l/m 2 min 0 min 778 W/m 16,1 km/h (3 Bft) 100,00 %
14.04.2019 14:50 12,4 C 17,8 C 17,8 C 53 % 1022,3 hPa 0,0 l/m 2 min 0 min 781 W/m 25,7 km/h (4 Bft) 100,00 %
14.04.2019 14:52 12,4 C 17,8 C 16,7 C 54 % 1022,3 hPa 0,0 l/m 2 min 0 min 789 W/m 22,5 km/h (4 Bft) 97,87 %
14.04.2019 14:54 12,4 C 17,8 C 15,6 C 52 % 1022,3 hPa 0,0 l/m 2 min 0 min 796 W/m 16,1 km/h (3 Bft) 95,74 %
14.04.2019 14:56 12,5 C 17,2 C 14,4 C 53 % 1022,2 hPa 0,0 l/m 2 min 0 min 807 W/m 19,3 km/h (3 Bft) 97,87 %
14.04.2019 14:58 12,5 C 16,7 C 14,4 C 53 % 1022,2 hPa 0,0 l/m 2 min 0 min 803 W/m 16,1 km/h (3 Bft) 97,87 %
14.04.2019 15:00 12,5 C 17,2 C 13,9 C 52 % 1022,2 hPa 0,0 l/m 2 min 0 min 778 W/m 19,3 km/h (3 Bft) 95,74 %
14.04.2019 15:02 12,4 C 17,2 C 13,9 C 52 % 1022,3 hPa 0,0 l/m 2 min 0 min 757 W/m 16,1 km/h (3 Bft) 95,65 %
14.04.2019 15:04 12,5 C 17,2 C 13,9 C 52 % 1022,2 hPa 0,0 l/m 2 min 0 min 736 W/m 16,1 km/h (3 Bft) 95,74 %
14.04.2019 15:06 12,5 C 17,8 C 13,9 C 52 % 1022,2 hPa 0,0 l/m 2 min 0 min 737 W/m 12,9 km/h (3 Bft) 94,92 %
14.04.2019 15:08 12,6 C 18,3 C 13,9 C 52 % 1022,2 hPa 0,0 l/m 2 min 0 min 727 W/m 16,1 km/h (3 Bft) 94,29 %
14.04.2019 15:10 12,6 C 17,2 C 13,9 C 51 % 1022,1 hPa 0,0 l/m 2 min 0 min 721 W/m 19,3 km/h (3 Bft) 95,74 %
14.04.2019 15:12 12,6 C 17,2 C 13,9 C 50 % 1022,2 hPa 0,0 l/m 2 min 0 min 729 W/m 16,1 km/h (3 Bft) 95,65 %
14.04.2019 15:14 12,7 C 17,8 C 13,9 C 51 % 1022,1 hPa 0,0 l/m 2 min 0 min 729 W/m 16,1 km/h (3 Bft) 95,74 %
14.04.2019 15:16 12,7 C 17,2 C 13,9 C 51 % 1022,1 hPa 0,0 l/m 2 min 0 min 717 W/m 19,3 km/h (3 Bft) 95,74 %
14.04.2019 15:18 12,6 C 16,7 C 13,9 C 51 % 1022,2 hPa 0,0 l/m 2 min 0 min 710 W/m 12,9 km/h (3 Bft) 93,62 %
14.04.2019 15:20 12,7 C 16,7 C 13,9 C 51 % 1022,1 hPa 0,0 l/m 2 min 0 min 712 W/m 16,1 km/h (3 Bft) 97,87 %
14.04.2019 15:22 12,7 C 17,2 C 14,4 C 51 % 1022,2 hPa 0,0 l/m 2 min 0 min 721 W/m 16,1 km/h (3 Bft) 93,62 %
14.04.2019 15:24 12,7 C 16,7 C 13,9 C 50 % 1022,2 hPa 0,0 l/m 2 min 0 min 737 W/m 16,1 km/h (3 Bft) 93,48 %
14.04.2019 15:26 12,7 C 16,1 C 13,9 C 50 % 1022,1 hPa 0,0 l/m 2 min 0 min 727 W/m 19,3 km/h (3 Bft) 93,62 %
14.04.2019 15:28 12,7 C 17,2 C 13,9 C 52 % 1022,1 hPa 0,0 l/m 2 min 0 min 706 W/m 12,9 km/h (3 Bft) 95,74 %
14.04.2019 15:30 12,8 C 17,8 C 13,9 C 53 % 1022,1 hPa 0,0 l/m 2 min 0 min 717 W/m 19,3 km/h (3 Bft) 95,74 %
14.04.2019 15:32 12,8 C 17,2 C 14,4 C 53 % 1022,1 hPa 0,0 l/m 2 min 0 min 688 W/m 16,1 km/h (3 Bft) 95,74 %
14.04.2019 15:34 12,8 C 16,1 C 13,3 C 52 % 1022,0 hPa 0,0 l/m 2 min 0 min 525 W/m 25,7 km/h (4 Bft) 95,74 %
14.04.2019 15:36 12,8 C 16,1 C 13,3 C 51 % 1021,9 hPa 0,0 l/m 2 min 0 min 650 W/m 29,0 km/h (5 Bft) 96,55 %
14.04.2019 15:38 12,8 C 16,7 C 13,3 C 52 % 1022,0 hPa 0,0 l/m 2 min 0 min 690 W/m 16,1 km/h (3 Bft) 94,29 %
14.04.2019 15:40 12,7 C 16,7 C 13,9 C 53 % 1022,1 hPa 0,0 l/m 2 min 0 min 691 W/m 25,7 km/h (4 Bft) 95,74 %
14.04.2019 15:42 12,8 C 17,2 C 13,9 C 53 % 1022,0 hPa 0,0 l/m 2 min 0 min 698 W/m 16,1 km/h (3 Bft) 95,74 %
14.04.2019 15:44 12,8 C 17,2 C 13,9 C 53 % 1022,0 hPa 0,0 l/m 2 min 0 min 672 W/m 16,1 km/h (3 Bft) 95,74 %
14.04.2019 15:46 12,8 C 16,7 C 13,3 C 53 % 1022,0 hPa 0,0 l/m 2 min 0 min 570 W/m 12,9 km/h (3 Bft) 93,62 %
14.04.2019 15:48 12,8 C 16,1 C 13,3 C 51 % 1022,0 hPa 0,0 l/m 2 min 0 min 497 W/m 16,1 km/h (3 Bft) 95,65 %
14.04.2019 15:50 12,8 C 16,7 C 13,3 C 52 % 1021,9 hPa 0,0 l/m 2 min 0 min 660 W/m 29,0 km/h (5 Bft) 100,00 %
14.04.2019 15:52 12,8 C 16,7 C 13,3 C 52 % 1021,8 hPa 0,0 l/m 2 min 0 min 662 W/m 22,5 km/h (4 Bft) 100,00 %
14.04.2019 15:54 12,8 C 16,7 C 13,3 C 51 % 1021,9 hPa 0,0 l/m 2 min 0 min 650 W/m 19,3 km/h (3 Bft) 97,87 %
14.04.2019 15:56 12,8 C 16,7 C 13,3 C 52 % 1021,9 hPa 0,0 l/m 2 min 0 min 663 W/m 25,7 km/h (4 Bft) 97,87 %
14.04.2019 15:58 12,8 C 16,7 C 13,9 C 52 % 1021,8 hPa 0,0 l/m 2 min 0 min 682 W/m 25,7 km/h (4 Bft) 100,00 %
14.04.2019 16:00 12,8 C 16,1 C 13,9 C 51 % 1021,7 hPa 0,0 l/m 2 min 0 min 693 W/m 41,8 km/h (6 Bft) 100,00 %
14.04.2019 16:02 12,8 C 15,0 C 13,3 C 51 % 1021,8 hPa 0,0 l/m 2 min 0 min 480 W/m 22,5 km/h (4 Bft) 100,00 %
14.04.2019 16:04 12,7 C 13,3 C 12,2 C 50 % 1021,8 hPa 0,0 l/m 0 min 0 min 221 W/m 22,5 km/h (4 Bft) 100,00 %
14.04.2019 16:06 12,6 C 13,3 C 12,2 C 51 % 1021,8 hPa 0,0 l/m 0 min 0 min 214 W/m 16,1 km/h (3 Bft) 97,87 %
14.04.2019 16:08 12,4 C 14,4 C 13,9 C 51 % 1021,8 hPa 0,0 l/m 2 min 0 min 627 W/m 16,1 km/h (3 Bft) 100,00 %
14.04.2019 16:10 12,4 C 15,0 C 15,0 C 51 % 1021,8 hPa 0,0 l/m 2 min 0 min 623 W/m 16,1 km/h (3 Bft) 100,00 %
14.04.2019 16:12 12,4 C 15,6 C 15,0 C 52 % 1021,7 hPa 0,0 l/m 2 min 0 min 624 W/m 22,5 km/h (4 Bft) 100,00 %
14.04.2019 16:14 12,4 C 15,6 C 15,6 C 52 % 1021,7 hPa 0,0 l/m 2 min 0 min 613 W/m 25,7 km/h (4 Bft) 95,74 %
14.04.2019 16:16 12,4 C 16,1 C 16,1 C 52 % 1021,7 hPa 0,0 l/m 2 min 0 min 620 W/m 12,9 km/h (3 Bft) 97,87 %
14.04.2019 16:18 12,4 C 16,1 C 15,6 C 52 % 1021,6 hPa 0,0 l/m 2 min 0 min 677 W/m 16,1 km/h (3 Bft) 97,87 %
14.04.2019 16:20 12,5 C 16,1 C 15,0 C 52 % 1021,6 hPa 0,0 l/m 2 min 0 min 649 W/m 19,3 km/h (3 Bft) 100,00 %
14.04.2019 16:22 12,5 C 14,4 C 13,9 C 53 % 1021,6 hPa 0,0 l/m 2 min 0 min 512 W/m 12,9 km/h (3 Bft) 97,83 %
14.04.2019 16:24 12,4 C 13,3 C 12,8 C 52 % 1021,6 hPa 0,0 l/m 0 min 0 min 197 W/m 19,3 km/h (3 Bft) 100,00 %
14.04.2019 16:26 12,4 C 13,9 C 13,9 C 53 % 1021,5 hPa 0,0 l/m 2 min 0 min 442 W/m 16,1 km/h (3 Bft) 97,87 %
14.04.2019 16:28 12,4 C 15,0 C 15,0 C 53 % 1021,6 hPa 0,0 l/m 2 min 0 min 604 W/m 19,3 km/h (3 Bft) 100,00 %
14.04.2019 16:30 12,4 C 15,6 C 15,6 C 53 % 1021,6 hPa 0,0 l/m 2 min 0 min 587 W/m 22,5 km/h (4 Bft) 95,74 %
14.04.2019 16:32 12,4 C 15,6 C 15,6 C 52 % 1021,6 hPa 0,0 l/m 2 min 0 min 581 W/m 19,3 km/h (3 Bft) 97,92 %
14.04.2019 16:34 12,4 C 15,6 C 16,1 C 53 % 1021,6 hPa 0,0 l/m 2 min 0 min 587 W/m 9,7 km/h (2 Bft) 97,83 %
14.04.2019 16:36 12,4 C 16,1 C 16,1 C 54 % 1021,6 hPa 0,0 l/m 2 min 0 min 587 W/m 9,7 km/h (2 Bft) 97,87 %
14.04.2019 16:38 12,5 C 15,6 C 15,0 C 53 % 1021,6 hPa 0,0 l/m 2 min 0 min 582 W/m 19,3 km/h (3 Bft) 95,74 %
14.04.2019 16:40 12,6 C 15,6 C 13,9 C 53 % 1021,6 hPa 0,0 l/m 2 min 0 min 587 W/m 16,1 km/h (3 Bft) 97,87 %
14.04.2019 16:42 12,6 C 15,6 C 13,9 C 53 % 1021,6 hPa 0,0 l/m 2 min 0 min 591 W/m 16,1 km/h (3 Bft) 97,87 %
14.04.2019 16:44 12,6 C 14,4 C 13,3 C 52 % 1021,7 hPa 0,0 l/m 2 min 0 min 578 W/m 16,1 km/h (3 Bft) 97,87 %
14.04.2019 16:46 12,6 C 14,4 C 13,3 C 52 % 1021,7 hPa 0,0 l/m 2 min 0 min 579 W/m 16,1 km/h (3 Bft) 97,83 %
14.04.2019 16:48 12,6 C 13,9 C 12,8 C 52 % 1021,6 hPa 0,0 l/m 2 min 0 min 548 W/m 12,9 km/h (3 Bft) 95,74 %
14.04.2019 16:50 12,5 C 13,3 C 12,8 C 52 % 1021,7 hPa 0,0 l/m 0 min 0 min 240 W/m 16,1 km/h (3 Bft) 97,87 %
14.04.2019 16:52 12,4 C 12,2 C 11,7 C 51 % 1021,7 hPa 0,0 l/m 0 min 0 min 232 W/m 22,5 km/h (4 Bft) 97,87 %
14.04.2019 16:54 12,2 C 12,8 C 12,2 C 51 % 1021,7 hPa 0,0 l/m 0 min 0 min 222 W/m 19,3 km/h (3 Bft) 97,87 %
14.04.2019 16:56 12,2 C 13,9 C 13,3 C 53 % 1021,7 hPa 0,0 l/m 2 min 0 min 516 W/m 12,9 km/h (3 Bft) 97,87 %
14.04.2019 16:58 12,2 C 14,4 C 15,0 C 53 % 1021,6 hPa 0,0 l/m 2 min 0 min 503 W/m 16,1 km/h (3 Bft) 97,83 %
14.04.2019 17:00 12,1 C 14,4 C 14,4 C 53 % 1021,6 hPa 0,0 l/m 2 min 0 min 509 W/m 12,9 km/h (3 Bft) 97,87 %
14.04.2019 17:02 12,1 C 13,9 C 14,4 C 52 % 1021,6 hPa 0,0 l/m 2 min 0 min 506 W/m 22,5 km/h (4 Bft) 97,87 %
14.04.2019 17:04 12,0 C 13,3 C 13,9 C 51 % 1021,6 hPa 0,0 l/m 2 min 0 min 510 W/m 19,3 km/h (3 Bft) 97,87 %
14.04.2019 17:06 12,0 C 13,3 C 14,4 C 52 % 1021,6 hPa 0,0 l/m 2 min 0 min 507 W/m 16,1 km/h (3 Bft) 93,62 %
14.04.2019 17:08 11,9 C 12,8 C 13,3 C 52 % 1021,6 hPa 0,0 l/m 2 min 0 min 502 W/m 16,1 km/h (3 Bft) 97,87 %
14.04.2019 17:10 11,9 C 13,9 C 13,3 C 53 % 1021,6 hPa 0,0 l/m 2 min 0 min 493 W/m 12,9 km/h (3 Bft) 97,83 %
14.04.2019 17:12 11,9 C 13,9 C 13,3 C 54 % 1021,5 hPa 0,0 l/m 2 min 0 min 498 W/m 12,9 km/h (3 Bft) 97,87 %
14.04.2019 17:14 11,9 C 13,9 C 13,3 C 53 % 1021,5 hPa 0,0 l/m 2 min 0 min 489 W/m 16,1 km/h (3 Bft) 100,00 %
14.04.2019 17:16 12,0 C 13,9 C 12,8 C 54 % 1021,5 hPa 0,0 l/m 2 min 0 min 469 W/m 16,1 km/h (3 Bft) 100,00 %
14.04.2019 17:18 12,0 C 12,8 C 12,2 C 52 % 1021,6 hPa 0,0 l/m 2 min 0 min 447 W/m 19,3 km/h (3 Bft) 100,00 %
14.04.2019 17:20 11,9 C 12,8 C 12,2 C 52 % 1021,7 hPa 0,0 l/m 2 min 0 min 387 W/m 19,3 km/h (3 Bft) 95,65 %
14.04.2019 17:22 11,9 C 12,8 C 12,2 C 52 % 1021,7 hPa 0,0 l/m 2 min 0 min 282 W/m 25,7 km/h (4 Bft) 100,00 %
14.04.2019 17:24 11,9 C 13,3 C 12,2 C 53 % 1021,7 hPa 0,0 l/m 2 min 0 min 442 W/m 25,7 km/h (4 Bft) 100,00 %
14.04.2019 17:26 11,9 C 13,3 C 12,2 C 53 % 1021,7 hPa 0,0 l/m 2 min 0 min 449 W/m 19,3 km/h (3 Bft) 100,00 %
14.04.2019 17:28 11,9 C 12,2 C 11,7 C 53 % 1021,7 hPa 0,0 l/m 2 min 0 min 329 W/m 22,5 km/h (4 Bft) 97,87 %
14.04.2019 17:30 11,8 C 12,2 C 11,1 C 53 % 1021,8 hPa 0,0 l/m 0 min 0 min 192 W/m 25,7 km/h (4 Bft) 100,00 %
14.04.2019 17:32 11,8 C 12,8 C 11,7 C 54 % 1021,9 hPa 0,0 l/m 2 min 0 min 353 W/m 16,1 km/h (3 Bft) 97,87 %
14.04.2019 17:34 11,8 C 12,8 C 11,7 C 54 % 1021,9 hPa 0,0 l/m 2 min 0 min 414 W/m 16,1 km/h (3 Bft) 100,00 %
14.04.2019 17:36 11,8 C 12,8 C 11,7 C 54 % 1021,8 hPa 0,0 l/m 2 min 0 min 409 W/m 12,9 km/h (3 Bft) 100,00 %
14.04.2019 17:38 11,7 C 12,8 C 11,7 C 54 % 1021,8 hPa 0,0 l/m 2 min 0 min 413 W/m 16,1 km/h (3 Bft) 100,00 %
14.04.2019 17:40 11,7 C 12,8 C 11,7 C 54 % 1021,8 hPa 0,0 l/m 2 min 0 min 414 W/m 16,1 km/h (3 Bft) 100,00 %
14.04.2019 17:42 11,8 C 12,8 C 11,7 C 54 % 1021,8 hPa 0,0 l/m 2 min 0 min 384 W/m 12,9 km/h (3 Bft) 100,00 %
14.04.2019 17:44 11,8 C 12,8 C 11,7 C 55 % 1021,9 hPa 0,0 l/m 2 min 0 min 376 W/m 19,3 km/h (3 Bft) 100,00 %
14.04.2019 17:46 11,8 C 12,2 C 11,1 C 54 % 1021,9 hPa 0,0 l/m 2 min 0 min 397 W/m 19,3 km/h (3 Bft) 100,00 %
14.04.2019 17:48 11,7 C 12,2 C 11,1 C 53 % 1021,8 hPa 0,0 l/m 2 min 0 min 396 W/m 16,1 km/h (3 Bft) 97,87 %
14.04.2019 17:50 11,7 C 12,2 C 11,1 C 53 % 1021,9 hPa 0,0 l/m 2 min 0 min 375 W/m 19,3 km/h (3 Bft) 100,00 %
14.04.2019 17:52 11,6 C 11,7 C 10,6 C 54 % 1021,8 hPa 0,0 l/m 2 min 0 min 343 W/m 22,5 km/h (4 Bft) 100,00 %
14.04.2019 17:54 11,6 C 11,1 C 10,6 C 54 % 1021,9 hPa 0,0 l/m 2 min 0 min 304 W/m 19,3 km/h (3 Bft) 100,00 %
14.04.2019 17:56 11,4 C 10,6 C 10,0 C 53 % 1021,9 hPa 0,0 l/m 0 min 0 min 109 W/m 16,1 km/h (3 Bft) 97,83 %
14.04.2019 17:58 11,4 C 11,1 C 10,0 C 54 % 1022,0 hPa 0,0 l/m 0 min 0 min 132 W/m 12,9 km/h (3 Bft) 95,74 %
14.04.2019 18:00 11,3 C 11,7 C 10,6 C 54 % 1022,0 hPa 0,0 l/m 2 min 0 min 364 W/m 16,1 km/h (3 Bft) 95,74 %
14.04.2019 18:02 11,3 C 12,2 C 10,6 C 55 % 1022,0 hPa 0,0 l/m 2 min 0 min 385 W/m 22,5 km/h (4 Bft) 97,92 %
14.04.2019 18:04 11,3 C 12,2 C 10,6 C 55 % 1022,1 hPa 0,0 l/m 2 min 0 min 414 W/m 22,5 km/h (4 Bft) 95,74 %
14.04.2019 18:07 11,3 C 12,2 C 10,6 C 56 % 1021,9 hPa 0,0 l/m 3 min 0 min 390 W/m 16,1 km/h (3 Bft) 95,71 %
14.04.2019 18:08 11,3 C 12,2 C 10,6 C 56 % 1021,9 hPa 0,0 l/m 1 min 0 min 314 W/m 12,9 km/h (3 Bft) 91,30 %
14.04.2019 18:10 11,3 C 11,1 C 10,0 C 55 % 1022,0 hPa 0,0 l/m 2 min 0 min 237 W/m 22,5 km/h (4 Bft) 95,74 %
14.04.2019 18:12 11,2 C 11,1 C 10,0 C 55 % 1022,0 hPa 0,0 l/m 0 min 0 min 156 W/m 19,3 km/h (3 Bft) 95,74 %
14.04.2019 18:14 11,2 C 10,6 C 10,0 C 55 % 1022,0 hPa 0,0 l/m 2 min 0 min 218 W/m 19,3 km/h (3 Bft) 95,74 %
14.04.2019 18:16 11,1 C 10,6 C 9,4 C 55 % 1022,2 hPa 0,0 l/m 2 min 0 min 216 W/m 16,1 km/h (3 Bft) 97,87 %
14.04.2019 18:18 11,1 C 10,0 C 9,4 C 55 % 1022,2 hPa 0,0 l/m 0 min 0 min 126 W/m 16,1 km/h (3 Bft) 93,48 %
14.04.2019 18:20 10,9 C 10,0 C 9,4 C 57 % 1022,2 hPa 0,0 l/m 0 min 0 min 106 W/m 12,9 km/h (3 Bft) 95,74 %
14.04.2019 18:22 10,8 C 10,0 C 8,9 C 57 % 1022,2 hPa 0,0 l/m 2 min 0 min 165 W/m 19,3 km/h (3 Bft) 95,74 %
14.04.2019 18:24 10,7 C 10,0 C 8,9 C 57 % 1022,2 hPa 0,0 l/m 0 min 0 min 134 W/m 9,7 km/h (2 Bft) 95,74 %
14.04.2019 18:26 10,7 C 10,0 C 9,4 C 58 % 1022,4 hPa 0,0 l/m 2 min 0 min 182 W/m 16,1 km/h (3 Bft) 95,74 %
14.04.2019 18:28 10,6 C 10,0 C 9,4 C 58 % 1022,2 hPa 0,0 l/m 2 min 0 min 168 W/m 9,7 km/h (2 Bft) 95,74 %
14.04.2019 18:30 10,5 C 10,0 C 9,4 C 58 % 1022,2 hPa 0,0 l/m 2 min 0 min 186 W/m 16,1 km/h (3 Bft) 95,65 %
14.04.2019 18:32 10,4 C 10,0 C 9,4 C 58 % 1022,3 hPa 0,0 l/m 2 min 0 min 146 W/m 19,3 km/h (3 Bft) 95,74 %
14.04.2019 18:34 10,4 C 10,0 C 9,4 C 58 % 1022,3 hPa 0,0 l/m 0 min 0 min 127 W/m 16,1 km/h (3 Bft) 93,62 %
14.04.2019 18:36 10,4 C 10,0 C 9,4 C 59 % 1022,4 hPa 0,0 l/m 0 min 0 min 108 W/m 16,1 km/h (3 Bft) 93,62 %
14.04.2019 18:38 10,3 C 10,0 C 9,4 C 59 % 1022,4 hPa 0,0 l/m 0 min 0 min 88 W/m 12,9 km/h (3 Bft) 95,74 %
14.04.2019 18:40 10,3 C 10,0 C 9,4 C 59 % 1022,4 hPa 0,0 l/m 0 min 0 min 77 W/m 16,1 km/h (3 Bft) 93,62 %
14.04.2019 18:42 10,3 C 9,4 C 9,4 C 59 % 1022,5 hPa 0,0 l/m 0 min 0 min 72 W/m 12,9 km/h (3 Bft) 93,48 %
14.04.2019 18:44 10,2 C 9,4 C 9,4 C 59 % 1022,6 hPa 0,0 l/m 0 min 0 min 69 W/m 9,7 km/h (2 Bft) 97,87 %
14.04.2019 18:46 10,2 C 9,4 C 8,9 C 59 % 1022,5 hPa 0,0 l/m 0 min 0 min 70 W/m 16,1 km/h (3 Bft) 97,87 %
14.04.2019 18:48 10,1 C 9,4 C 8,9 C 59 % 1022,6 hPa 0,0 l/m 0 min 0 min 77 W/m 12,9 km/h (3 Bft) 97,87 %
14.04.2019 18:50 10,1 C 9,4 C 8,9 C 59 % 1022,6 hPa 0,0 l/m 0 min 0 min 88 W/m 12,9 km/h (3 Bft) 97,87 %
14.04.2019 18:52 10,0 C 9,4 C 8,9 C 59 % 1022,7 hPa 0,0 l/m 0 min 0 min 99 W/m 12,9 km/h (3 Bft) 100,00 %
14.04.2019 18:54 10,0 C 9,4 C 8,9 C 59 % 1022,7 hPa 0,0 l/m 0 min 0 min 98 W/m 9,7 km/h (2 Bft) 100,00 %
14.04.2019 18:56 9,9 C 9,4 C 8,9 C 59 % 1022,7 hPa 0,0 l/m 0 min 0 min 93 W/m 19,3 km/h (3 Bft) 100,00 %
14.04.2019 18:58 9,9 C 9,4 C 8,9 C 59 % 1022,7 hPa 0,0 l/m 0 min 0 min 85 W/m 19,3 km/h (3 Bft) 100,00 %
14.04.2019 19:00 9,9 C 9,4 C 8,9 C 60 % 1022,7 hPa 0,0 l/m 0 min 0 min 77 W/m 12,9 km/h (3 Bft) 97,87 %
14.04.2019 19:02 9,9 C 9,4 C 8,9 C 60 % 1022,7 hPa 0,0 l/m 0 min 0 min 72 W/m 12,9 km/h (3 Bft) 100,00 %
14.04.2019 19:04 9,8 C 9,4 C 8,9 C 60 % 1022,6 hPa 0,0 l/m 0 min 0 min 68 W/m 16,1 km/h (3 Bft) 100,00 %
14.04.2019 19:06 9,8 C 8,9 C 8,9 C 59 % 1022,7 hPa 0,0 l/m 0 min 0 min 63 W/m 16,1 km/h (3 Bft) 100,00 %
14.04.2019 19:08 9,7 C 8,9 C 8,9 C 58 % 1022,7 hPa 0,0 l/m 0 min 0 min 60 W/m 16,1 km/h (3 Bft) 100,00 %
14.04.2019 19:10 9,7 C 8,9 C 8,9 C 58 % 1022,7 hPa 0,0 l/m 0 min 0 min 64 W/m 16,1 km/h (3 Bft) 100,00 %
14.04.2019 19:12 9,7 C 8,9 C 8,9 C 60 % 1022,8 hPa 0,0 l/m 0 min 0 min 70 W/m 16,1 km/h (3 Bft) 100,00 %
14.04.2019 19:14 9,6 C 8,9 C 8,9 C 60 % 1022,8 hPa 0,0 l/m 0 min 0 min 69 W/m 12,9 km/h (3 Bft) 100,00 %
14.04.2019 19:16 9,6 C 8,9 C 8,9 C 60 % 1022,8 hPa 0,0 l/m 0 min 0 min 59 W/m 16,1 km/h (3 Bft) 100,00 %
14.04.2019 19:18 9,6 C 8,9 C 8,9 C 61 % 1022,8 hPa 0,0 l/m 0 min 0 min 49 W/m 12,9 km/h (3 Bft) 97,87 %
14.04.2019 19:20 9,5 C 8,9 C 8,9 C 61 % 1022,9 hPa 0,0 l/m 0 min 0 min 43 W/m 12,9 km/h (3 Bft) 97,87 %
14.04.2019 19:22 9,5 C 8,9 C 8,3 C 61 % 1022,9 hPa 0,0 l/m 0 min 0 min 35 W/m 16,1 km/h (3 Bft) 95,74 %
14.04.2019 19:24 9,5 C 8,9 C 8,3 C 61 % 1022,8 hPa 0,0 l/m 0 min 0 min 30 W/m 9,7 km/h (2 Bft) 97,87 %
14.04.2019 19:26 9,4 C 8,9 C 8,3 C 61 % 1022,8 hPa 0,0 l/m 0 min 0 min 28 W/m 9,7 km/h (2 Bft) 97,87 %
14.04.2019 19:28 9,4 C 8,9 C 8,3 C 62 % 1022,8 hPa 0,0 l/m 0 min 0 min 28 W/m 9,7 km/h (2 Bft) 97,83 %
14.04.2019 19:30 9,4 C 8,3 C 8,3 C 62 % 1022,8 hPa 0,0 l/m 0 min 0 min 30 W/m 16,1 km/h (3 Bft) 97,87 %
14.04.2019 19:32 9,4 C 8,3 C 8,3 C 62 % 1022,8 hPa 0,0 l/m 0 min 0 min 31 W/m 12,9 km/h (3 Bft) 97,87 %
14.04.2019 19:34 9,3 C 8,3 C 8,3 C 62 % 1022,8 hPa 0,0 l/m 0 min 0 min 33 W/m 12,9 km/h (3 Bft) 97,87 %
14.04.2019 19:36 9,3 C 8,3 C 7,8 C 62 % 1022,9 hPa 0,0 l/m 0 min 0 min 37 W/m 12,9 km/h (3 Bft) 97,87 %
14.04.2019 19:38 9,2 C 8,3 C 7,8 C 62 % 1022,9 hPa 0,0 l/m 0 min 0 min 38 W/m 16,1 km/h (3 Bft) 97,87 %
14.04.2019 19:40 9,2 C 8,3 C 7,8 C 63 % 1022,8 hPa 0,0 l/m 0 min 0 min 37 W/m 9,7 km/h (2 Bft) 95,65 %
14.04.2019 19:42 9,2 C 8,3 C 7,8 C 63 % 1022,8 hPa 0,0 l/m 0 min 0 min 39 W/m 19,3 km/h (3 Bft) 97,87 %
14.04.2019 19:44 9,1 C 7,8 C 7,8 C 63 % 1022,8 hPa 0,0 l/m 0 min 0 min 38 W/m 16,1 km/h (3 Bft) 97,87 %
14.04.2019 19:46 9,1 C 8,3 C 7,8 C 63 % 1022,8 hPa 0,0 l/m 0 min 0 min 35 W/m 12,9 km/h (3 Bft) 95,74 %
14.04.2019 19:48 9,1 C 8,3 C 7,8 C 63 % 1022,9 hPa 0,0 l/m 0 min 0 min 31 W/m 12,9 km/h (3 Bft) 95,74 %
14.04.2019 19:50 9,0 C 8,3 C 7,8 C 62 % 1022,9 hPa 0,0 l/m 0 min 0 min 27 W/m 16,1 km/h (3 Bft) 97,87 %
14.04.2019 19:52 8,9 C 8,3 C 7,8 C 62 % 1022,9 hPa 0,0 l/m 0 min 0 min 23 W/m 12,9 km/h (3 Bft) 93,48 %
14.04.2019 19:54 8,9 C 8,3 C 7,8 C 62 % 1022,9 hPa 0,0 l/m 0 min 0 min 19 W/m 19,3 km/h (3 Bft) 97,87 %
14.04.2019 19:56 8,9 C 8,3 C 7,8 C 62 % 1022,9 hPa 0,0 l/m 0 min 0 min 17 W/m 16,1 km/h (3 Bft) 95,74 %
14.04.2019 19:58 8,8 C 8,3 C 7,8 C 62 % 1022,9 hPa 0,0 l/m 0 min 0 min 14 W/m 12,9 km/h (3 Bft) 95,74 %
14.04.2019 20:00 8,8 C 7,8 C 7,8 C 63 % 1022,9 hPa 0,0 l/m 0 min 0 min 12 W/m 12,9 km/h (3 Bft) 95,74 %
14.04.2019 20:02 8,8 C 7,8 C 7,8 C 63 % 1022,9 hPa 0,0 l/m 0 min 0 min 11 W/m 9,7 km/h (2 Bft) 97,87 %
14.04.2019 20:04 8,8 C 7,8 C 7,8 C 63 % 1022,9 hPa 0,0 l/m 0 min 0 min 11 W/m 12,9 km/h (3 Bft) 97,87 %
14.04.2019 20:06 8,7 C 7,8 C 7,2 C 62 % 1022,9 hPa 0,0 l/m 0 min 0 min 11 W/m 12,9 km/h (3 Bft) 95,74 %
14.04.2019 20:08 8,7 C 7,8 C 7,2 C 62 % 1022,9 hPa 0,0 l/m 0 min 0 min 11 W/m 12,9 km/h (3 Bft) 95,65 %
14.04.2019 20:10 8,7 C 7,8 C 7,2 C 62 % 1022,9 hPa 0,0 l/m 0 min 0 min 9 W/m 12,9 km/h (3 Bft) 93,62 %
14.04.2019 20:12 8,6 C 7,8 C 7,2 C 63 % 1022,9 hPa 0,0 l/m 0 min 0 min 9 W/m 16,1 km/h (3 Bft) 100,00 %
14.04.2019 20:14 8,6 C 7,2 C 7,2 C 63 % 1023,0 hPa 0,0 l/m 0 min 0 min 7 W/m 9,7 km/h (2 Bft) 100,00 %
14.04.2019 20:16 8,5 C 7,2 C 7,2 C 63 % 1023,0 hPa 0,0 l/m 0 min 0 min 6 W/m 12,9 km/h (3 Bft) 97,87 %
14.04.2019 20:18 8,4 C 7,2 C 7,2 C 63 % 1023,0 hPa 0,0 l/m 0 min 0 min 5 W/m 16,1 km/h (3 Bft) 95,74 %
14.04.2019 20:20 8,4 C 7,2 C 7,2 C 64 % 1022,9 hPa 0,0 l/m 0 min 0 min 5 W/m 9,7 km/h (2 Bft) 97,83 %
14.04.2019 20:22 8,4 C 7,2 C 7,2 C 64 % 1023,0 hPa 0,0 l/m 0 min 0 min 4 W/m 16,1 km/h (3 Bft) 97,87 %
14.04.2019 20:24 8,3 C 7,2 C 7,2 C 64 % 1023,0 hPa 0,0 l/m 0 min 0 min 0 W/m 9,7 km/h (2 Bft) 97,87 %
14.04.2019 20:26 8,3 C 7,2 C 6,7 C 65 % 1023,0 hPa 0,0 l/m 0 min 0 min 0 W/m 9,7 km/h (2 Bft) 95,74 %
14.04.2019 20:28 8,3 C 7,2 C 6,7 C 65 % 1023,0 hPa 0,0 l/m 0 min 0 min 0 W/m 12,9 km/h (3 Bft) 95,74 %
14.04.2019 20:30 8,2 C 7,2 C 6,7 C 65 % 1023,0 hPa 0,0 l/m 0 min 0 min 0 W/m 9,7 km/h (2 Bft) 97,87 %
14.04.2019 20:32 8,2 C 7,2 C 6,7 C 66 % 1023,0 hPa 0,0 l/m 0 min 0 min 0 W/m 9,7 km/h (2 Bft) 93,48 %
14.04.2019 20:34 8,2 C 7,2 C 6,7 C 66 % 1023,1 hPa 0,0 l/m 0 min 0 min 0 W/m 9,7 km/h (2 Bft) 97,87 %
14.04.2019 20:36 8,2 C 6,7 C 6,7 C 66 % 1023,2 hPa 0,0 l/m 0 min 0 min 0 W/m 9,7 km/h (2 Bft) 97,87 %
14.04.2019 20:38 8,1 C 6,7 C 6,7 C 66 % 1023,1 hPa 0,0 l/m 0 min 0 min 0 W/m 9,7 km/h (2 Bft) 97,87 %
14.04.2019 20:40 8,1 C 6,7 C 6,7 C 66 % 1023,2 hPa 0,0 l/m 0 min 0 min 0 W/m 12,9 km/h (3 Bft) 97,87 %
14.04.2019 20:42 8,0 C 6,7 C 6,7 C 66 % 1023,2 hPa 0,0 l/m 0 min 0 min 0 W/m 12,9 km/h (3 Bft) 97,87 %
14.04.2019 20:44 8,0 C 6,7 C 6,7 C 66 % 1023,2 hPa 0,0 l/m 0 min 0 min 0 W/m 12,9 km/h (3 Bft) 95,65 %
14.04.2019 20:46 8,0 C 6,7 C 6,7 C 67 % 1023,2 hPa 0,0 l/m 0 min 0 min 0 W/m 9,7 km/h (2 Bft) 97,87 %
14.04.2019 20:48 7,9 C 6,7 C 6,7 C 67 % 1023,3 hPa 0,0 l/m 0 min 0 min 0 W/m 12,9 km/h (3 Bft) 95,74 %
14.04.2019 20:50 7,9 C 6,7 C 6,7 C 67 % 1023,3 hPa 0,0 l/m 0 min 0 min 0 W/m 9,7 km/h (2 Bft) 95,74 %
14.04.2019 20:52 7,9 C 6,7 C 6,7 C 68 % 1023,3 hPa 0,0 l/m 0 min 0 min 0 W/m 9,7 km/h (2 Bft) 97,87 %
14.04.2019 20:54 7,8 C 6,7 C 6,7 C 67 % 1023,3 hPa 0,0 l/m 0 min 0 min 0 W/m 9,7 km/h (2 Bft) 97,87 %
14.04.2019 20:56 7,8 C 6,7 C 6,7 C 67 % 1023,3 hPa 0,0 l/m 0 min 0 min 0 W/m 9,7 km/h (2 Bft) 100,00 %
14.04.2019 20:58 7,8 C 6,7 C 6,7 C 68 % 1023,4 hPa 0,0 l/m 0 min 0 min 0 W/m 9,7 km/h (2 Bft) 100,00 %
14.04.2019 21:00 7,8 C 6,7 C 6,7 C 68 % 1023,3 hPa 0,0 l/m 0 min 0 min 0 W/m 9,7 km/h (2 Bft) 100,00 %
14.04.2019 21:02 7,8 C 6,7 C 6,7 C 68 % 1023,4 hPa 0,0 l/m 0 min 0 min 0 W/m 12,9 km/h (3 Bft) 100,00 %
14.04.2019 21:04 7,8 C 7,2 C 6,7 C 68 % 1023,4 hPa 0,0 l/m 0 min 0 min 0 W/m 6,4 km/h (2 Bft) 100,00 %
14.04.2019 21:06 7,8 C 7,2 C 6,7 C 68 % 1023,4 hPa 0,0 l/m 0 min 0 min 0 W/m 9,7 km/h (2 Bft) 100,00 %
14.04.2019 21:08 7,7 C 7,2 C 6,7 C 68 % 1023,4 hPa 0,0 l/m 0 min 0 min 0 W/m 6,4 km/h (2 Bft) 97,87 %
14.04.2019 21:10 7,7 C 7,2 C 6,7 C 69 % 1023,5 hPa 0,0 l/m 0 min 0 min 0 W/m 6,4 km/h (2 Bft) 100,00 %
14.04.2019 21:12 7,7 C 7,2 C 6,7 C 69 % 1023,4 hPa 0,0 l/m 0 min 0 min 0 W/m 6,4 km/h (2 Bft) 100,00 %
14.04.2019 21:14 7,7 C 7,2 C 6,7 C 69 % 1023,5 hPa 0,0 l/m 0 min 0 min 0 W/m 6,4 km/h (2 Bft) 100,00 %
14.04.2019 21:16 7,7 C 7,2 C 6,7 C 69 % 1023,5 hPa 0,0 l/m 0 min 0 min 0 W/m 9,7 km/h (2 Bft) 100,00 %
14.04.2019 21:18 7,7 C 7,2 C 6,7 C 69 % 1023,6 hPa 0,0 l/m 0 min 0 min 0 W/m 6,4 km/h (2 Bft) 97,83 %
14.04.2019 21:20 7,7 C 7,2 C 6,7 C 69 % 1023,6 hPa 0,0 l/m 0 min 0 min 0 W/m 12,9 km/h (3 Bft) 100,00 %
14.04.2019 21:22 7,7 C 7,2 C 6,7 C 69 % 1023,7 hPa 0,0 l/m 0 min 0 min 0 W/m 9,7 km/h (2 Bft) 100,00 %
14.04.2019 21:24 7,7 C 7,2 C 6,7 C 69 % 1023,7 hPa 0,0 l/m 0 min 0 min 0 W/m 9,7 km/h (2 Bft) 100,00 %
14.04.2019 21:26 7,7 C 7,2 C 6,7 C 69 % 1023,7 hPa 0,0 l/m 0 min 0 min 0 W/m 9,7 km/h (2 Bft) 100,00 %
14.04.2019 21:28 7,7 C 7,2 C 6,7 C 69 % 1023,8 hPa 0,0 l/m 0 min 0 min 0 W/m 9,7 km/h (2 Bft) 100,00 %
14.04.2019 21:30 7,7 C 7,2 C 6,7 C 69 % 1023,8 hPa 0,0 l/m 0 min 0 min 0 W/m 22,5 km/h (4 Bft) 100,00 %
14.04.2019 21:32 7,7 C 7,2 C 6,7 C 69 % 1023,8 hPa 0,0 l/m 0 min 0 min 0 W/m 12,9 km/h (3 Bft) 100,00 %
14.04.2019 21:34 7,7 C 7,2 C 6,7 C 69 % 1023,9 hPa 0,0 l/m 0 min 0 min 0 W/m 9,7 km/h (2 Bft) 97,87 %
14.04.2019 21:36 7,7 C 7,2 C 6,7 C 69 % 1023,9 hPa 0,0 l/m 0 min 0 min 0 W/m 12,9 km/h (3 Bft) 97,87 %
14.04.2019 21:38 7,7 C 7,2 C 6,7 C 69 % 1023,8 hPa 0,0 l/m 0 min 0 min 0 W/m 12,9 km/h (3 Bft) 100,00 %
14.04.2019 21:40 7,7 C 7,2 C 6,7 C 69 % 1023,9 hPa 0,0 l/m 0 min 0 min 0 W/m 12,9 km/h (3 Bft) 100,00 %
14.04.2019 21:42 7,7 C 7,2 C 6,7 C 69 % 1023,8 hPa 0,0 l/m 0 min 0 min 0 W/m 9,7 km/h (2 Bft) 100,00 %
14.04.2019 21:44 7,7 C 7,2 C 6,7 C 69 % 1023,9 hPa 0,0 l/m 0 min 0 min 0 W/m 12,9 km/h (3 Bft) 100,00 %
14.04.2019 21:46 7,7 C 7,2 C 6,7 C 69 % 1023,9 hPa 0,0 l/m 0 min 0 min 0 W/m 6,4 km/h (2 Bft) 95,74 %
14.04.2019 21:48 7,7 C 7,2 C 6,7 C 70 % 1023,8 hPa 0,0 l/m 0 min 0 min 0 W/m 12,9 km/h (3 Bft) 100,00 %
14.04.2019 21:50 7,7 C 7,2 C 6,7 C 70 % 1023,9 hPa 0,0 l/m 0 min 0 min 0 W/m 9,7 km/h (2 Bft) 95,74 %
14.04.2019 21:52 7,7 C 7,2 C 6,7 C 70 % 1024,0 hPa 0,0 l/m 0 min 0 min 0 W/m 9,7 km/h (2 Bft) 93,62 %
14.04.2019 21:54 7,7 C 6,7 C 6,7 C 70 % 1024,0 hPa 0,0 l/m 0 min 0 min 0 W/m 9,7 km/h (2 Bft) 91,49 %
14.04.2019 21:56 7,7 C 6,7 C 6,7 C 70 % 1024,0 hPa 0,0 l/m 0 min 0 min 0 W/m 12,9 km/h (3 Bft) 97,87 %
14.04.2019 21:58 7,7 C 6,7 C 6,7 C 70 % 1023,9 hPa 0,0 l/m 0 min 0 min 0 W/m 12,9 km/h (3 Bft) 97,87 %
14.04.2019 22:00 7,7 C 6,7 C 6,7 C 70 % 1023,9 hPa 0,0 l/m 0 min 0 min 0 W/m 9,7 km/h (2 Bft) 97,83 %
14.04.2019 22:02 7,7 C 6,7 C 6,7 C 70 % 1024,0 hPa 0,0 l/m 0 min 0 min 0 W/m 9,7 km/h (2 Bft) 97,87 %
14.04.2019 22:04 7,7 C 6,7 C 6,7 C 70 % 1024,0 hPa 0,0 l/m 0 min 0 min 0 W/m 12,9 km/h (3 Bft) 97,87 %
14.04.2019 22:06 7,6 C 6,7 C 6,7 C 70 % 1024,1 hPa 0,0 l/m 0 min 0 min 0 W/m 16,1 km/h (3 Bft) 97,87 %
14.04.2019 22:08 7,6 C 6,7 C 6,7 C 70 % 1024,1 hPa 0,0 l/m 0 min 0 min 0 W/m 12,9 km/h (3 Bft) 97,87 %
14.04.2019 22:10 7,6 C 6,7 C 6,7 C 71 % 1024,1 hPa 0,0 l/m 0 min 0 min 0 W/m 9,7 km/h (2 Bft) 97,87 %
14.04.2019 22:12 7,6 C 6,7 C 6,7 C 71 % 1024,1 hPa 0,0 l/m 0 min 0 min 0 W/m 12,9 km/h (3 Bft) 97,83 %
14.04.2019 22:14 7,6 C 6,7 C 6,7 C 71 % 1024,1 hPa 0,0 l/m 0 min 0 min 0 W/m 16,1 km/h (3 Bft) 95,74 %
14.04.2019 22:16 7,5 C 6,7 C 6,7 C 70 % 1024,1 hPa 0,0 l/m 0 min 0 min 0 W/m 9,7 km/h (2 Bft) 95,74 %
14.04.2019 22:18 7,5 C 6,7 C 6,7 C 70 % 1024,1 hPa 0,0 l/m 0 min 0 min 0 W/m 9,7 km/h (2 Bft) 95,74 %
14.04.2019 22:20 7,5 C 6,7 C 6,7 C 70 % 1024,2 hPa 0,0 l/m 0 min 0 min 0 W/m 9,7 km/h (2 Bft) 97,87 %
14.04.2019 22:22 7,5 C 6,7 C 6,7 C 70 % 1024,3 hPa 0,0 l/m 0 min 0 min 0 W/m 6,4 km/h (2 Bft) 95,65 %
14.04.2019 22:24 7,5 C 6,7 C 6,7 C 70 % 1024,4 hPa 0,0 l/m 0 min 0 min 0 W/m 9,7 km/h (2 Bft) 95,74 %
14.04.2019 22:26 7,4 C 6,7 C 6,7 C 70 % 1024,3 hPa 0,0 l/m 0 min 0 min 0 W/m 9,7 km/h (2 Bft) 93,62 %
14.04.2019 22:28 7,4 C 6,7 C 6,1 C 70 % 1024,3 hPa 0,0 l/m 0 min 0 min 0 W/m 12,9 km/h (3 Bft) 95,74 %
14.04.2019 22:30 7,4 C 6,7 C 6,1 C 71 % 1024,4 hPa 0,0 l/m 0 min 0 min 0 W/m 6,4 km/h (2 Bft) 95,74 %
14.04.2019 22:32 7,4 C 6,7 C 6,1 C 71 % 1024,4 hPa 0,0 l/m 0 min 0 min 0 W/m 6,4 km/h (2 Bft) 91,49 %
14.04.2019 22:34 7,4 C 6,7 C 6,1 C 71 % 1024,5 hPa 0,0 l/m 0 min 0 min 0 W/m 12,9 km/h (3 Bft) 93,48 %
14.04.2019 22:36 7,4 C 6,7 C 6,1 C 71 % 1024,4 hPa 0,0 l/m 0 min 0 min 0 W/m 9,7 km/h (2 Bft) 93,75 %
14.04.2019 22:38 7,4 C 6,7 C 6,1 C 71 % 1024,4 hPa 0,0 l/m 0 min 0 min 0 W/m 9,7 km/h (2 Bft) 91,30 %
14.04.2019 22:40 7,4 C 6,7 C 6,1 C 71 % 1024,3 hPa 0,0 l/m 0 min 0 min 0 W/m 9,7 km/h (2 Bft) 93,62 %
14.04.2019 22:42 7,4 C 6,7 C 6,1 C 72 % 1024,3 hPa 0,0 l/m 0 min 0 min 0 W/m 12,9 km/h (3 Bft) 93,62 %
14.04.2019 22:44 7,4 C 6,7 C 6,1 C 72 % 1024,2 hPa 0,0 l/m 0 min 0 min 0 W/m 9,7 km/h (2 Bft) 93,62 %
14.04.2019 22:46 7,4 C 6,7 C 6,1 C 72 % 1024,2 hPa 0,0 l/m 0 min 0 min 0 W/m 9,7 km/h (2 Bft) 93,62 %
14.04.2019 22:48 7,3 C 6,7 C 6,1 C 72 % 1024,2 hPa 0,0 l/m 0 min 0 min 0 W/m 9,7 km/h (2 Bft) 93,62 %
14.04.2019 22:50 7,3 C 6,7 C 6,1 C 72 % 1024,2 hPa 0,0 l/m 0 min 0 min 0 W/m 6,4 km/h (2 Bft) 91,49 %
14.04.2019 22:52 7,3 C 6,7 C 6,1 C 72 % 1024,2 hPa 0,0 l/m 0 min 0 min 0 W/m 9,7 km/h (2 Bft) 93,48 %
14.04.2019 22:54 7,3 C 6,7 C 6,1 C 73 % 1024,2 hPa 0,0 l/m 0 min 0 min 0 W/m 9,7 km/h (2 Bft) 91,49 %
14.04.2019 22:56 7,3 C 6,7 C 6,1 C 72 % 1024,2 hPa 0,0 l/m 0 min 0 min 0 W/m 9,7 km/h (2 Bft) 93,62 %
14.04.2019 22:58 7,3 C 6,7 C 6,1 C 73 % 1024,2 hPa 0,0 l/m 0 min 0 min 0 W/m 9,7 km/h (2 Bft) 93,62 %
14.04.2019 23:00 7,3 C 6,7 C 6,1 C 73 % 1024,1 hPa 0,0 l/m 0 min 0 min 0 W/m 9,7 km/h (2 Bft) 93,62 %
14.04.2019 23:02 7,3 C 6,7 C 6,1 C 73 % 1024,1 hPa 0,0 l/m 0 min 0 min 0 W/m 9,7 km/h (2 Bft) 93,48 %
14.04.2019 23:04 7,3 C 6,7 C 6,1 C 73 % 1024,1 hPa 0,0 l/m 0 min 0 min 0 W/m 9,7 km/h (2 Bft) 93,62 %
14.04.2019 23:06 7,3 C 6,7 C 6,1 C 73 % 1024,1 hPa 0,0 l/m 0 min 0 min 0 W/m 19,3 km/h (3 Bft) 95,74 %
14.04.2019 23:08 7,2 C 6,7 C 6,1 C 73 % 1024,1 hPa 0,0 l/m 0 min 0 min 0 W/m 9,7 km/h (2 Bft) 93,62 %
14.04.2019 23:10 7,2 C 6,7 C 6,1 C 73 % 1024,1 hPa 0,0 l/m 0 min 0 min 0 W/m 9,7 km/h (2 Bft) 95,74 %
14.04.2019 23:12 7,2 C 6,7 C 6,1 C 73 % 1024,2 hPa 0,0 l/m 0 min 0 min 0 W/m 16,1 km/h (3 Bft) 95,74 %
14.04.2019 23:14 7,2 C 6,1 C 6,1 C 74 % 1024,2 hPa 0,0 l/m 0 min 0 min 0 W/m 9,7 km/h (2 Bft) 95,65 %
14.04.2019 23:16 7,2 C 6,1 C 6,1 C 74 % 1024,2 hPa 0,0 l/m 0 min 0 min 0 W/m 12,9 km/h (3 Bft) 100,00 %
14.04.2019 23:18 7,2 C 6,1 C 6,1 C 73 % 1024,2 hPa 0,0 l/m 0 min 0 min 0 W/m 9,7 km/h (2 Bft) 97,87 %
14.04.2019 23:20 7,1 C 6,1 C 5,6 C 73 % 1024,2 hPa 0,0 l/m 0 min 0 min 0 W/m 12,9 km/h (3 Bft) 100,00 %
14.04.2019 23:22 7,1 C 6,1 C 5,6 C 73 % 1024,1 hPa 0,0 l/m 0 min 0 min 0 W/m 16,1 km/h (3 Bft) 97,87 %
14.04.2019 23:24 7,1 C 6,1 C 5,6 C 73 % 1024,1 hPa 0,0 l/m 0 min 0 min 0 W/m 9,7 km/h (2 Bft) 97,87 %
14.04.2019 23:26 7,0 C 5,6 C 5,6 C 73 % 1024,0 hPa 0,0 l/m 0 min 0 min 0 W/m 12,9 km/h (3 Bft) 97,83 %
14.04.2019 23:28 6,9 C 5,6 C 5,0 C 73 % 1024,1 hPa 0,0 l/m 0 min 0 min 0 W/m 12,9 km/h (3 Bft) 100,00 %
14.04.2019 23:30 6,9 C 5,6 C 5,0 C 74 % 1024,2 hPa 0,0 l/m 0 min 0 min 0 W/m 9,7 km/h (2 Bft) 97,87 %
14.04.2019 23:32 6,8 C 5,6 C 5,0 C 74 % 1024,2 hPa 0,0 l/m 0 min 0 min 0 W/m 12,9 km/h (3 Bft) 100,00 %
14.04.2019 23:34 6,8 C 5,6 C 5,0 C 74 % 1024,2 hPa 0,0 l/m 0 min 0 min 0 W/m 9,7 km/h (2 Bft) 97,87 %
14.04.2019 23:36 6,7 C 5,0 C 5,0 C 74 % 1024,3 hPa 0,0 l/m 0 min 0 min 0 W/m 9,7 km/h (2 Bft) 97,83 %
14.04.2019 23:38 6,7 C 5,0 C 5,0 C 74 % 1024,4 hPa 0,0 l/m 0 min 0 min 0 W/m 9,7 km/h (2 Bft) 97,87 %
14.04.2019 23:40 6,6 C 5,0 C 4,4 C 75 % 1024,4 hPa 0,0 l/m 0 min 0 min 0 W/m 9,7 km/h (2 Bft) 100,00 %
14.04.2019 23:42 6,6 C 5,0 C 4,4 C 75 % 1024,4 hPa 0,0 l/m 0 min 0 min 0 W/m 12,9 km/h (3 Bft) 100,00 %
14.04.2019 23:44 6,4 C 5,0 C 4,4 C 75 % 1024,4 hPa 0,0 l/m 0 min 0 min 0 W/m 9,7 km/h (2 Bft) 100,00 %
14.04.2019 23:46 6,4 C 5,0 C 4,4 C 75 % 1024,4 hPa 0,0 l/m 0 min 0 min 0 W/m 12,9 km/h (3 Bft) 100,00 %
14.04.2019 23:48 6,4 C 5,0 C 4,4 C 75 % 1024,4 hPa 0,0 l/m 0 min 0 min 0 W/m 9,7 km/h (2 Bft) 100,00 %
14.04.2019 23:50 6,4 C 5,0 C 4,4 C 76 % 1024,5 hPa 0,0 l/m 0 min 0 min 0 W/m 9,7 km/h (2 Bft) 97,87 %
14.04.2019 23:52 6,3 C 5,0 C 4,4 C 76 % 1024,5 hPa 0,0 l/m 0 min 0 min 0 W/m 9,7 km/h (2 Bft) 100,00 %
14.04.2019 23:54 6,2 C 5,0 C 4,4 C 76 % 1024,5 hPa 0,0 l/m 0 min 0 min 0 W/m 6,4 km/h (2 Bft) 100,00 %
14.04.2019 23:56 6,2 C 4,4 C 4,4 C 76 % 1024,5 hPa 0,0 l/m 0 min 0 min 0 W/m 9,7 km/h (2 Bft) 100,00 %
14.04.2019 23:58 6,1 C 4,4 C 4,4 C 77 % 1024,5 hPa 0,0 l/m 0 min 0 min 0 W/m 6,4 km/h (2 Bft) 100,00 %
_ Min-Zeit 05:10 04:05 06:04 15:12 02:24 - - - - 00:00 08:54
Minimum _ 1,4 C 0,6 C 0,0 C 50 % 1020,8 hPa - - - - 0,0 km/h (0 Bft) 87,23 %
_ Max-Zeit 15:30 14:04 14:06 06:44 22:34 00:00 12:07 02:08 13:36 16:00 00:00
Maximum _ 12,8 C 18,9 C 20,0 C 93 % 1024,5 hPa 0,0 l/m 3 min 2 min 823 W/m 41,8 km/h
O-SO (6 Bft)
100,00 %
Durchschnitt _ 6,6 C 7,9 C 7,1 C 74 % 1022,1 hPa #0,0 l/m #8:02 h #12 min. 397 W/m 11,4 km/h (2 Bft) 97,33 %
© 2019 W. Hausmann